CFHAO SKBO-GOBD
Flight info
| Callsign | CFHAO |
|---|---|
| Flight time | 7h 45m |
| Altitude | 37000 |
| Route | MAVDA UW20 AUC DCT MIQ UN669 ELJEZ/M079F390 DCT 2150N DCT 2340N DCT 22N036W DCT ERNEK/N0455F390 DCT EVKAS DCT BVT DCT MOGSA DCT PIVSA PIVSA1D |
| Aircraft | B737/M-SDE2E3FGHIRWXY/LB1 |
Departure
| Time | 2026-04-25 13:15 |
|---|---|
| Airport | El Dorado International Airport (SKBO) |
Arrival
| Time | 2026-04-25 21:01 |
|---|---|
| Airport | Blaise Diagne International Airport (GOBD) |
| Time | Latitude | Longitude | Altitude | Speed | Heading |
|---|---|---|---|---|---|
| 2026-04-25 12:03 | 4.69675 | -74.14571 | 8372 ft | 0 kts | 217° |
| 2026-04-25 12:44 | 4.69692 | -74.14559 | 8373 ft | 4 kts | 217° |
| 2026-04-25 12:44 | 4.69708 | -74.14540 | 8373 ft | 4 kts | 261° |
| 2026-04-25 12:44 | 4.69703 | -74.14517 | 8372 ft | 1 kts | 308° |
| 2026-04-25 12:49 | 4.69704 | -74.14518 | 8372 ft | 1 kts | 307° |
| 2026-04-25 12:49 | 4.69710 | -74.14526 | 8372 ft | 4 kts | 307° |
| 2026-04-25 12:49 | 4.69744 | -74.14571 | 8372 ft | 12 kts | 307° |
| 2026-04-25 12:49 | 4.69797 | -74.14643 | 8372 ft | 13 kts | 307° |
| 2026-04-25 12:50 | 4.69851 | -74.14713 | 8372 ft | 12 kts | 307° |
| 2026-04-25 12:50 | 4.69901 | -74.14783 | 8372 ft | 12 kts | 307° |
| 2026-04-25 12:50 | 4.69946 | -74.14852 | 8372 ft | 11 kts | 280° |
| 2026-04-25 12:50 | 4.69904 | -74.14908 | 8372 ft | 11 kts | 217° |
| 2026-04-25 12:51 | 4.69856 | -74.14960 | 8372 ft | 10 kts | 265° |
| 2026-04-25 12:51 | 4.69890 | -74.15021 | 8372 ft | 10 kts | 307° |
| 2026-04-25 12:51 | 4.69932 | -74.15076 | 8372 ft | 10 kts | 307° |
| 2026-04-25 12:51 | 4.69973 | -74.15130 | 8372 ft | 10 kts | 307° |
| 2026-04-25 12:52 | 4.70020 | -74.15193 | 8373 ft | 12 kts | 307° |
| 2026-04-25 12:52 | 4.70074 | -74.15264 | 8372 ft | 13 kts | 307° |
| 2026-04-25 12:52 | 4.70132 | -74.15340 | 8372 ft | 14 kts | 307° |
| 2026-04-25 12:52 | 4.70194 | -74.15422 | 8372 ft | 15 kts | 308° |
| 2026-04-25 12:53 | 4.70257 | -74.15506 | 8372 ft | 15 kts | 307° |
| 2026-04-25 12:53 | 4.70319 | -74.15588 | 8372 ft | 14 kts | 307° |
| 2026-04-25 12:53 | 4.70377 | -74.15665 | 8372 ft | 14 kts | 307° |
| 2026-04-25 12:53 | 4.70433 | -74.15739 | 8372 ft | 13 kts | 307° |
| 2026-04-25 12:54 | 4.70488 | -74.15811 | 8372 ft | 13 kts | 307° |
| 2026-04-25 12:54 | 4.70541 | -74.15881 | 8372 ft | 12 kts | 307° |
| 2026-04-25 12:54 | 4.70592 | -74.15949 | 8372 ft | 12 kts | 307° |
| 2026-04-25 12:54 | 4.70645 | -74.16019 | 8373 ft | 13 kts | 307° |
| 2026-04-25 12:55 | 4.70699 | -74.16090 | 8373 ft | 13 kts | 307° |
| 2026-04-25 12:55 | 4.70734 | -74.16136 | 8373 ft | 12 kts | 307° |
| 2026-04-25 12:55 | 4.70803 | -74.16226 | 8373 ft | 12 kts | 307° |
| 2026-04-25 12:55 | 4.70853 | -74.16292 | 8372 ft | 12 kts | 308° |
| 2026-04-25 12:56 | 4.70901 | -74.16356 | 8373 ft | 11 kts | 307° |
| 2026-04-25 12:56 | 4.70948 | -74.16418 | 8373 ft | 11 kts | 307° |
| 2026-04-25 12:56 | 4.70992 | -74.16475 | 8372 ft | 7 kts | 307° |
| 2026-04-25 12:56 | 4.71009 | -74.16498 | 8372 ft | 0 kts | 307° |
| 2026-04-25 12:57 | 4.71010 | -74.16499 | 8372 ft | 1 kts | 307° |
| 2026-04-25 12:57 | 4.71020 | -74.16512 | 8373 ft | 4 kts | 307° |
| 2026-04-25 12:58 | 4.71040 | -74.16539 | 8372 ft | 5 kts | 307° |
| 2026-04-25 12:58 | 4.71053 | -74.16557 | 8373 ft | 0 kts | 307° |
| 2026-04-25 12:59 | 4.71054 | -74.16558 | 8372 ft | 1 kts | 307° |
| 2026-04-25 12:59 | 4.71068 | -74.16577 | 8372 ft | 5 kts | 307° |
| 2026-04-25 12:59 | 4.71088 | -74.16603 | 8372 ft | 4 kts | 307° |
| 2026-04-25 12:59 | 4.71090 | -74.16605 | 8373 ft | 0 kts | 307° |
| 2026-04-25 13:00 | 4.71093 | -74.16609 | 8372 ft | 3 kts | 308° |
| 2026-04-25 13:00 | 4.71115 | -74.16638 | 8373 ft | 7 kts | 307° |
| 2026-04-25 13:01 | 4.71129 | -74.16657 | 8373 ft | 0 kts | 307° |
| 2026-04-25 13:01 | 4.71133 | -74.16662 | 8373 ft | 1 kts | 307° |
| 2026-04-25 13:01 | 4.71135 | -74.16665 | 8373 ft | 0 kts | 307° |
| 2026-04-25 13:04 | 4.71144 | -74.16677 | 8372 ft | 5 kts | 307° |
| 2026-04-25 13:04 | 4.71169 | -74.16709 | 8373 ft | 4 kts | 307° |
| 2026-04-25 13:04 | 4.71173 | -74.16715 | 8373 ft | 0 kts | 307° |
| 2026-04-25 13:06 | 4.71188 | -74.16735 | 8372 ft | 6 kts | 307° |
| 2026-04-25 13:06 | 4.71209 | -74.16777 | 8373 ft | 7 kts | 268° |
| 2026-04-25 13:06 | 4.71203 | -74.16790 | 8373 ft | 0 kts | 232° |
| 2026-04-25 13:09 | 4.71201 | -74.16792 | 8373 ft | 2 kts | 232° |
| 2026-04-25 13:09 | 4.71179 | -74.16811 | 8372 ft | 5 kts | 218° |
| 2026-04-25 13:09 | 4.71150 | -74.16833 | 8372 ft | 5 kts | 217° |
| 2026-04-25 13:10 | 4.71144 | -74.16838 | 8372 ft | 0 kts | 217° |
| 2026-04-25 13:11 | 4.71142 | -74.16839 | 8372 ft | 2 kts | 217° |
| 2026-04-25 13:11 | 4.71109 | -74.16864 | 8372 ft | 10 kts | 217° |
| 2026-04-25 13:12 | 4.71050 | -74.16885 | 8372 ft | 8 kts | 177° |
| 2026-04-25 13:12 | 4.71017 | -74.16866 | 8372 ft | 4 kts | 128° |
| 2026-04-25 13:12 | 4.71013 | -74.16860 | 8372 ft | 0 kts | 126° |
| 2026-04-25 13:14 | 4.70955 | -74.16783 | 8372 ft | 40 kts | 127° |
| 2026-04-25 13:14 | 4.70658 | -74.16392 | 8374 ft | 99 kts | 127° |
| 2026-04-25 13:14 | 4.70138 | -74.15704 | 8372 ft | 147 kts | 127° |
| 2026-04-25 13:14 | 4.69439 | -74.14780 | 8376 ft | 188 kts | 126° |
| 2026-04-25 13:15 | 4.68600 | -74.13673 | 8695 ft | 209 kts | 125° |
| 2026-04-25 13:15 | 4.67667 | -74.12469 | 9075 ft | 229 kts | 132° |
| 2026-04-25 13:15 | 4.66304 | -74.11651 | 9639 ft | 235 kts | 171° |
| 2026-04-25 13:15 | 4.64689 | -74.11800 | 10270 ft | 238 kts | 203° |
| 2026-04-25 13:16 | 4.63358 | -74.12795 | 10787 ft | 244 kts | 234° |
| 2026-04-25 13:16 | 4.62661 | -74.14339 | 11418 ft | 245 kts | 258° |
| 2026-04-25 13:16 | 4.62357 | -74.16034 | 12038 ft | 250 kts | 261° |
| 2026-04-25 13:16 | 4.62072 | -74.17778 | 12657 ft | 257 kts | 261° |
| 2026-04-25 13:17 | 4.61773 | -74.19558 | 13423 ft | 258 kts | 260° |
| 2026-04-25 13:17 | 4.61465 | -74.21331 | 14189 ft | 261 kts | 259° |
| 2026-04-25 13:17 | 4.61119 | -74.23177 | 14409 ft | 285 kts | 259° |
| 2026-04-25 13:17 | 4.60729 | -74.25211 | 14647 ft | 307 kts | 259° |
| 2026-04-25 13:18 | 4.60078 | -74.27275 | 15162 ft | 316 kts | 240° |
| 2026-04-25 13:18 | 4.58746 | -74.29041 | 15882 ft | 318 kts | 227° |
| 2026-04-25 13:18 | 4.57180 | -74.30626 | 16601 ft | 322 kts | 225° |
| 2026-04-25 13:18 | 4.55578 | -74.32225 | 17271 ft | 327 kts | 226° |
| 2026-04-25 13:19 | 4.53975 | -74.33849 | 17978 ft | 330 kts | 226° |
| 2026-04-25 13:19 | 4.52283 | -74.35442 | 18516 ft | 341 kts | 215° |
| 2026-04-25 13:19 | 4.50087 | -74.36446 | 18580 ft | 362 kts | 200° |
| 2026-04-25 13:19 | 4.49280 | -74.36756 | 18603 ft | 369 kts | 205° |
| 2026-04-25 13:20 | 4.45501 | -74.39084 | 18760 ft | 399 kts | 210° |
| 2026-04-25 13:20 | 4.42830 | -74.40002 | 18820 ft | 417 kts | 186° |
| 2026-04-25 13:20 | 4.39906 | -74.39818 | 19057 ft | 428 kts | 166° |
| 2026-04-25 13:20 | 4.37137 | -74.38708 | 19443 ft | 433 kts | 149° |
| 2026-04-25 13:21 | 4.34771 | -74.36846 | 19939 ft | 434 kts | 133° |
| 2026-04-25 13:21 | 4.33023 | -74.34371 | 20412 ft | 437 kts | 115° |
| 2026-04-25 13:21 | 4.32102 | -74.31510 | 20858 ft | 439 kts | 97° |
| 2026-04-25 13:21 | 4.32097 | -74.28459 | 21292 ft | 439 kts | 79° |
| 2026-04-25 13:22 | 4.33025 | -74.25547 | 21721 ft | 440 kts | 63° |
| 2026-04-25 13:22 | 4.34647 | -74.22938 | 22147 ft | 441 kts | 53° |
| 2026-04-25 13:22 | 4.36511 | -74.20484 | 22581 ft | 443 kts | 51° |
| 2026-04-25 13:23 | 4.40457 | -74.15698 | 23385 ft | 448 kts | 50° |
| 2026-04-25 13:23 | 4.42431 | -74.13305 | 23713 ft | 451 kts | 50° |
| 2026-04-25 13:23 | 4.44415 | -74.10863 | 24030 ft | 454 kts | 51° |
| 2026-04-25 13:23 | 4.46390 | -74.08393 | 24294 ft | 454 kts | 51° |
| 2026-04-25 13:24 | 4.48350 | -74.05916 | 24218 ft | 455 kts | 51° |
| 2026-04-25 13:24 | 4.50305 | -74.03427 | 24235 ft | 455 kts | 52° |
| 2026-04-25 13:24 | 4.52262 | -74.00927 | 24237 ft | 455 kts | 52° |
| 2026-04-25 13:24 | 4.54205 | -73.98439 | 24237 ft | 453 kts | 52° |
| 2026-04-25 13:25 | 4.56155 | -73.95944 | 24251 ft | 454 kts | 51° |
| 2026-04-25 13:25 | 4.58107 | -73.93445 | 24248 ft | 455 kts | 52° |
| 2026-04-25 13:25 | 4.60057 | -73.90951 | 24238 ft | 455 kts | 51° |
| 2026-04-25 13:25 | 4.61987 | -73.88482 | 24232 ft | 454 kts | 52° |
| 2026-04-25 13:26 | 4.63934 | -73.85993 | 24239 ft | 454 kts | 51° |
| 2026-04-25 13:26 | 4.65856 | -73.83489 | 24235 ft | 454 kts | 56° |
| 2026-04-25 13:26 | 4.67246 | -73.80652 | 24242 ft | 454 kts | 73° |
| 2026-04-25 13:26 | 4.67778 | -73.77529 | 24371 ft | 457 kts | 86° |
| 2026-04-25 13:27 | 4.67839 | -73.74344 | 24781 ft | 456 kts | 90° |
| 2026-04-25 13:27 | 4.67800 | -73.71163 | 25098 ft | 457 kts | 91° |
| 2026-04-25 13:27 | 4.67734 | -73.67959 | 25371 ft | 460 kts | 91° |
| 2026-04-25 13:27 | 4.67663 | -73.64742 | 25583 ft | 462 kts | 91° |
| 2026-04-25 13:28 | 4.67589 | -73.61515 | 25881 ft | 463 kts | 91° |
| 2026-04-25 13:28 | 4.67564 | -73.60426 | 25984 ft | 463 kts | 91° |
| 2026-04-25 13:28 | 4.67444 | -73.55034 | 26169 ft | 469 kts | 91° |
| 2026-04-25 13:28 | 4.67374 | -73.51769 | 26182 ft | 468 kts | 91° |
| 2026-04-25 13:29 | 4.67385 | -73.48529 | 26119 ft | 463 kts | 84° |
| 2026-04-25 13:29 | 4.68138 | -73.45407 | 26192 ft | 463 kts | 67° |
| 2026-04-25 13:29 | 4.69691 | -73.42570 | 26391 ft | 466 kts | 58° |
| 2026-04-25 13:30 | 4.73608 | -73.37398 | 26877 ft | 471 kts | 50° |
| 2026-04-25 13:30 | 4.75793 | -73.34942 | 27042 ft | 473 kts | 48° |
| 2026-04-25 13:30 | 4.78019 | -73.32495 | 27181 ft | 477 kts | 48° |
| 2026-04-25 13:31 | 4.82512 | -73.27556 | 27743 ft | 478 kts | 49° |
| 2026-04-25 13:31 | 4.84741 | -73.25079 | 27994 ft | 479 kts | 49° |
| 2026-04-25 13:31 | 4.86966 | -73.22588 | 28148 ft | 481 kts | 49° |
| 2026-04-25 13:31 | 4.89197 | -73.20079 | 28338 ft | 483 kts | 50° |
| 2026-04-25 13:32 | 4.91405 | -73.17589 | 28579 ft | 483 kts | 50° |
| 2026-04-25 13:32 | 4.93636 | -73.15072 | 28880 ft | 482 kts | 50° |
| 2026-04-25 13:32 | 4.95865 | -73.12555 | 29221 ft | 480 kts | 50° |
| 2026-04-25 13:32 | 4.98085 | -73.10049 | 29574 ft | 479 kts | 50° |
| 2026-04-25 13:33 | 5.00302 | -73.07547 | 29847 ft | 479 kts | 50° |
| 2026-04-25 13:33 | 5.01769 | -73.05891 | 30059 ft | 479 kts | 50° |
| 2026-04-25 13:33 | 5.04700 | -73.02583 | 30483 ft | 477 kts | 50° |
| 2026-04-25 13:33 | 5.05447 | -73.01740 | 30591 ft | 477 kts | 50° |
| 2026-04-25 13:34 | 5.09105 | -72.97612 | 31105 ft | 476 kts | 50° |
| 2026-04-25 13:34 | 5.10592 | -72.95933 | 31342 ft | 475 kts | 50° |
| 2026-04-25 13:34 | 5.12786 | -72.93457 | 31620 ft | 475 kts | 51° |
| 2026-04-25 13:34 | 5.14950 | -72.91013 | 31890 ft | 475 kts | 51° |
| 2026-04-25 13:35 | 5.17147 | -72.88532 | 32225 ft | 474 kts | 51° |
| 2026-04-25 13:35 | 5.19337 | -72.86060 | 32584 ft | 472 kts | 51° |
| 2026-04-25 13:35 | 5.21522 | -72.83593 | 32950 ft | 472 kts | 51° |
| 2026-04-25 13:35 | 5.23700 | -72.81132 | 33268 ft | 471 kts | 51° |
| 2026-04-25 13:36 | 5.25875 | -72.78676 | 33664 ft | 470 kts | 51° |
| 2026-04-25 13:36 | 5.28040 | -72.76229 | 34031 ft | 469 kts | 51° |
| 2026-04-25 13:36 | 5.30212 | -72.73776 | 34341 ft | 468 kts | 51° |
| 2026-04-25 13:36 | 5.32373 | -72.71333 | 34615 ft | 468 kts | 51° |
| 2026-04-25 13:37 | 5.34503 | -72.68926 | 34878 ft | 467 kts | 51° |
| 2026-04-25 13:37 | 5.36687 | -72.66458 | 35147 ft | 466 kts | 51° |
| 2026-04-25 13:37 | 5.38809 | -72.64059 | 35426 ft | 466 kts | 51° |
| 2026-04-25 13:37 | 5.40959 | -72.61628 | 35714 ft | 465 kts | 51° |
| 2026-04-25 13:38 | 5.43102 | -72.59205 | 35953 ft | 464 kts | 51° |
| 2026-04-25 13:38 | 5.45252 | -72.56774 | 36180 ft | 464 kts | 51° |
| 2026-04-25 13:38 | 5.47394 | -72.54351 | 36475 ft | 462 kts | 51° |
| 2026-04-25 13:38 | 5.49526 | -72.51941 | 36659 ft | 462 kts | 51° |
| 2026-04-25 13:39 | 5.51665 | -72.49521 | 36813 ft | 463 kts | 51° |
| 2026-04-25 13:39 | 5.53805 | -72.47099 | 37053 ft | 463 kts | 51° |
| 2026-04-25 13:39 | 5.55950 | -72.44671 | 37040 ft | 466 kts | 51° |
| 2026-04-25 13:40 | 5.60211 | -72.39849 | 37052 ft | 463 kts | 51° |
| 2026-04-25 13:40 | 5.64454 | -72.35048 | 37038 ft | 457 kts | 51° |
| 2026-04-25 13:41 | 5.68664 | -72.30281 | 37063 ft | 454 kts | 51° |
| 2026-04-25 13:41 | 5.72869 | -72.25518 | 37031 ft | 460 kts | 51° |
| 2026-04-25 13:42 | 5.77154 | -72.20661 | 37040 ft | 465 kts | 50° |
| 2026-04-25 13:42 | 5.81420 | -72.15827 | 37041 ft | 465 kts | 51° |
| 2026-04-25 13:43 | 5.85712 | -72.10966 | 37006 ft | 464 kts | 51° |
| 2026-04-25 13:43 | 5.89988 | -72.06120 | 37006 ft | 462 kts | 51° |
| 2026-04-25 13:44 | 5.94256 | -72.01281 | 37039 ft | 461 kts | 51° |
| 2026-04-25 13:44 | 5.98510 | -71.96455 | 37008 ft | 461 kts | 51° |
| 2026-04-25 13:45 | 6.02725 | -71.91673 | 37003 ft | 460 kts | 51° |
| 2026-04-25 13:45 | 6.06970 | -71.86856 | 37003 ft | 459 kts | 51° |
| 2026-04-25 13:46 | 6.11207 | -71.82046 | 37004 ft | 460 kts | 51° |
| 2026-04-25 13:46 | 6.15445 | -71.77235 | 36993 ft | 460 kts | 51° |
| 2026-04-25 13:47 | 6.19698 | -71.72405 | 37000 ft | 460 kts | 51° |
| 2026-04-25 13:47 | 6.23921 | -71.67608 | 36989 ft | 461 kts | 51° |
| 2026-04-25 13:48 | 6.28181 | -71.62767 | 36989 ft | 463 kts | 51° |
| 2026-04-25 13:48 | 6.32467 | -71.57895 | 36988 ft | 464 kts | 51° |
| 2026-04-25 13:49 | 6.36718 | -71.53063 | 36985 ft | 465 kts | 50° |
| 2026-04-25 13:49 | 6.41005 | -71.48188 | 36990 ft | 464 kts | 50° |
| 2026-04-25 13:50 | 6.45281 | -71.43324 | 36983 ft | 463 kts | 50° |
| 2026-04-25 13:50 | 6.49552 | -71.38465 | 36975 ft | 463 kts | 50° |
| 2026-04-25 13:51 | 6.53796 | -71.33634 | 36976 ft | 463 kts | 50° |
| 2026-04-25 13:51 | 6.58068 | -71.28770 | 36981 ft | 463 kts | 50° |
| 2026-04-25 13:52 | 6.62347 | -71.23897 | 36977 ft | 465 kts | 50° |
| 2026-04-25 13:52 | 6.66604 | -71.19048 | 36979 ft | 466 kts | 50° |
| 2026-04-25 13:53 | 6.70898 | -71.14156 | 36977 ft | 467 kts | 50° |
| 2026-04-25 13:53 | 6.75206 | -71.09246 | 36977 ft | 468 kts | 50° |
| 2026-04-25 13:54 | 6.79510 | -71.04339 | 36980 ft | 468 kts | 50° |
| 2026-04-25 13:54 | 6.83825 | -70.99418 | 36977 ft | 468 kts | 50° |
| 2026-04-25 13:55 | 6.88112 | -70.94527 | 36981 ft | 468 kts | 50° |
| 2026-04-25 13:55 | 6.92421 | -70.89610 | 36977 ft | 468 kts | 50° |
| 2026-04-25 13:56 | 6.96724 | -70.84698 | 36970 ft | 468 kts | 50° |
| 2026-04-25 13:56 | 7.01031 | -70.79779 | 36983 ft | 468 kts | 50° |
| 2026-04-25 13:57 | 7.05345 | -70.74851 | 36999 ft | 469 kts | 50° |
| 2026-04-25 13:57 | 7.09708 | -70.70010 | 36992 ft | 470 kts | 47° |
| 2026-04-25 13:58 | 7.14265 | -70.65307 | 36994 ft | 469 kts | 46° |
| 2026-04-25 13:58 | 7.18840 | -70.60617 | 36967 ft | 469 kts | 47° |
| 2026-04-25 13:59 | 7.23414 | -70.55879 | 36988 ft | 473 kts | 47° |
| 2026-04-25 13:59 | 7.27995 | -70.51104 | 36981 ft | 474 kts | 47° |
| 2026-04-25 14:00 | 7.32583 | -70.46312 | 36996 ft | 475 kts | 47° |
| 2026-04-25 14:00 | 7.37167 | -70.41523 | 36978 ft | 474 kts | 47° |
| 2026-04-25 14:01 | 7.41716 | -70.36772 | 36982 ft | 473 kts | 47° |
| 2026-04-25 14:01 | 7.46289 | -70.31994 | 36978 ft | 471 kts | 47° |
| 2026-04-25 14:02 | 7.50828 | -70.27250 | 36978 ft | 469 kts | 47° |
| 2026-04-25 14:02 | 7.55321 | -70.22553 | 36975 ft | 467 kts | 47° |
| 2026-04-25 14:03 | 7.59825 | -70.17842 | 36977 ft | 466 kts | 47° |
| 2026-04-25 14:03 | 7.64296 | -70.13164 | 36991 ft | 466 kts | 47° |
| 2026-04-25 14:04 | 7.68807 | -70.08443 | 36989 ft | 468 kts | 47° |
| 2026-04-25 14:04 | 7.73344 | -70.03693 | 36985 ft | 470 kts | 47° |
| 2026-04-25 14:05 | 7.77893 | -69.98928 | 36990 ft | 472 kts | 47° |
| 2026-04-25 14:05 | 7.82459 | -69.94146 | 36991 ft | 474 kts | 47° |
| 2026-04-25 14:06 | 7.87008 | -69.89378 | 36991 ft | 475 kts | 47° |
| 2026-04-25 14:06 | 7.91607 | -69.84558 | 36987 ft | 476 kts | 47° |
| 2026-04-25 14:07 | 7.96204 | -69.79737 | 36990 ft | 476 kts | 47° |
| 2026-04-25 14:07 | 8.00802 | -69.74913 | 36994 ft | 477 kts | 47° |
| 2026-04-25 14:08 | 8.05366 | -69.70124 | 36998 ft | 476 kts | 47° |
| 2026-04-25 14:08 | 8.09953 | -69.65309 | 36990 ft | 474 kts | 47° |
| 2026-04-25 14:09 | 8.14516 | -69.60518 | 36993 ft | 472 kts | 47° |
| 2026-04-25 14:09 | 8.19025 | -69.55781 | 37001 ft | 470 kts | 47° |
| 2026-04-25 14:10 | 8.23562 | -69.51013 | 36989 ft | 470 kts | 47° |
| 2026-04-25 14:10 | 8.28101 | -69.46242 | 36999 ft | 471 kts | 47° |
| 2026-04-25 14:11 | 8.32676 | -69.41430 | 37005 ft | 478 kts | 47° |
| 2026-04-25 14:11 | 8.37265 | -69.36602 | 36999 ft | 479 kts | 47° |
| 2026-04-25 14:12 | 8.41894 | -69.31732 | 36992 ft | 480 kts | 47° |
| 2026-04-25 14:12 | 8.46521 | -69.26861 | 36991 ft | 478 kts | 47° |
| 2026-04-25 14:13 | 8.51106 | -69.22032 | 36995 ft | 474 kts | 47° |
| 2026-04-25 14:13 | 8.55673 | -69.17222 | 36990 ft | 472 kts | 47° |
| 2026-04-25 14:14 | 8.60197 | -69.12453 | 37003 ft | 473 kts | 47° |
| 2026-04-25 14:14 | 8.64802 | -69.07597 | 37010 ft | 482 kts | 47° |
| 2026-04-25 14:15 | 8.69451 | -69.02694 | 36997 ft | 483 kts | 47° |
| 2026-04-25 14:15 | 8.74075 | -68.97816 | 36993 ft | 483 kts | 47° |
| 2026-04-25 14:16 | 8.78722 | -68.92910 | 37001 ft | 482 kts | 47° |
| 2026-04-25 14:16 | 8.83371 | -68.88003 | 36997 ft | 482 kts | 47° |
| 2026-04-25 14:17 | 8.87975 | -68.83139 | 37000 ft | 481 kts | 47° |
| 2026-04-25 14:17 | 8.92601 | -68.78251 | 36992 ft | 480 kts | 47° |
| 2026-04-25 14:18 | 8.97212 | -68.73376 | 36999 ft | 479 kts | 47° |
| 2026-04-25 14:18 | 9.01787 | -68.68537 | 36994 ft | 478 kts | 47° |
| 2026-04-25 14:19 | 9.06387 | -68.63671 | 36992 ft | 477 kts | 47° |
| 2026-04-25 14:19 | 9.10979 | -68.58810 | 36994 ft | 477 kts | 47° |
| 2026-04-25 14:20 | 9.15559 | -68.53961 | 36992 ft | 477 kts | 47° |
| 2026-04-25 14:20 | 9.20144 | -68.49105 | 36995 ft | 477 kts | 47° |
| 2026-04-25 14:21 | 9.24731 | -68.44243 | 36992 ft | 477 kts | 47° |
| 2026-04-25 14:21 | 9.29321 | -68.39378 | 36995 ft | 478 kts | 47° |
| 2026-04-25 14:22 | 9.33918 | -68.34503 | 36997 ft | 479 kts | 47° |
| 2026-04-25 14:22 | 9.38497 | -68.29644 | 36994 ft | 479 kts | 47° |
| 2026-04-25 14:23 | 9.43105 | -68.24753 | 36998 ft | 480 kts | 47° |
| 2026-04-25 14:23 | 9.47714 | -68.19860 | 37001 ft | 480 kts | 47° |
| 2026-04-25 14:24 | 9.52327 | -68.14959 | 36990 ft | 481 kts | 47° |
| 2026-04-25 14:24 | 9.56922 | -68.10076 | 37007 ft | 481 kts | 48° |
| 2026-04-25 14:25 | 9.60799 | -68.05954 | 37003 ft | 481 kts | 48° |
| 2026-04-25 14:25 | 9.65394 | -68.01067 | 37004 ft | 482 kts | 48° |
| 2026-04-25 14:26 | 9.70020 | -67.96145 | 37005 ft | 482 kts | 48° |
| 2026-04-25 14:26 | 9.74645 | -67.91222 | 37011 ft | 482 kts | 48° |
| 2026-04-25 14:27 | 9.79277 | -67.86290 | 37008 ft | 482 kts | 48° |
| 2026-04-25 14:27 | 9.83876 | -67.81390 | 37009 ft | 482 kts | 48° |
| 2026-04-25 14:28 | 9.88503 | -67.76457 | 37023 ft | 483 kts | 47° |
| 2026-04-25 14:28 | 9.93139 | -67.71514 | 37024 ft | 484 kts | 47° |
| 2026-04-25 14:29 | 9.97789 | -67.66554 | 37018 ft | 485 kts | 47° |
| 2026-04-25 14:29 | 10.02453 | -67.61576 | 37024 ft | 486 kts | 47° |
| 2026-04-25 14:30 | 10.07089 | -67.56627 | 37010 ft | 487 kts | 47° |
| 2026-04-25 14:30 | 10.14082 | -67.49156 | 37016 ft | 486 kts | 48° |
| 2026-04-25 14:31 | 10.18746 | -67.44170 | 37016 ft | 486 kts | 48° |
| 2026-04-25 14:31 | 10.23405 | -67.39188 | 37017 ft | 485 kts | 48° |
| 2026-04-25 14:32 | 10.28057 | -67.34210 | 37015 ft | 485 kts | 48° |
| 2026-04-25 14:32 | 10.32667 | -67.29276 | 37017 ft | 484 kts | 48° |
| 2026-04-25 14:33 | 10.37302 | -67.24312 | 37018 ft | 484 kts | 48° |
| 2026-04-25 14:33 | 10.41940 | -67.19343 | 37022 ft | 484 kts | 48° |
| 2026-04-25 14:34 | 10.46581 | -67.14368 | 37016 ft | 485 kts | 48° |
| 2026-04-25 14:34 | 10.51221 | -67.09390 | 37010 ft | 485 kts | 48° |
| 2026-04-25 14:35 | 10.55836 | -67.04439 | 36967 ft | 485 kts | 48° |
| 2026-04-25 14:35 | 10.60475 | -66.99442 | 36976 ft | 485 kts | 50° |
| 2026-04-25 14:36 | 10.64476 | -66.93947 | 36974 ft | 483 kts | 58° |
| 2026-04-25 14:36 | 10.68181 | -66.88217 | 36969 ft | 485 kts | 58° |
| 2026-04-25 14:37 | 10.71890 | -66.82530 | 36967 ft | 487 kts | 58° |
| 2026-04-25 14:37 | 10.75676 | -66.76817 | 36983 ft | 487 kts | 58° |
| 2026-04-25 14:38 | 10.79480 | -66.71107 | 36979 ft | 488 kts | 58° |
| 2026-04-25 14:38 | 10.83268 | -66.65419 | 36967 ft | 488 kts | 58° |
| 2026-04-25 14:39 | 10.87083 | -66.59681 | 36964 ft | 489 kts | 58° |
| 2026-04-25 14:39 | 10.90892 | -66.53947 | 36965 ft | 489 kts | 58° |
| 2026-04-25 14:40 | 10.94707 | -66.48201 | 36960 ft | 489 kts | 58° |
| 2026-04-25 14:40 | 10.98518 | -66.42457 | 36961 ft | 489 kts | 58° |
| 2026-04-25 14:41 | 11.02304 | -66.36750 | 36961 ft | 489 kts | 58° |
| 2026-04-25 14:41 | 11.06151 | -66.31031 | 36959 ft | 489 kts | 57° |
| 2026-04-25 14:42 | 11.09377 | -66.26299 | 36965 ft | 489 kts | 57° |
| 2026-04-25 14:42 | 11.13883 | -66.19679 | 36970 ft | 489 kts | 57° |
| 2026-04-25 14:43 | 11.17755 | -66.13970 | 36963 ft | 489 kts | 57° |
| 2026-04-25 14:43 | 11.21619 | -66.08266 | 36966 ft | 488 kts | 57° |
| 2026-04-25 14:44 | 11.25476 | -66.02568 | 36967 ft | 488 kts | 57° |
| 2026-04-25 14:44 | 11.29306 | -65.96907 | 36966 ft | 488 kts | 57° |
| 2026-04-25 14:45 | 11.33163 | -65.91205 | 36964 ft | 487 kts | 57° |
| 2026-04-25 14:45 | 11.37010 | -65.85512 | 36962 ft | 487 kts | 57° |
| 2026-04-25 14:46 | 11.40852 | -65.79824 | 36970 ft | 487 kts | 57° |
| 2026-04-25 14:46 | 11.44696 | -65.74132 | 36970 ft | 487 kts | 57° |
| 2026-04-25 14:47 | 11.47887 | -65.69400 | 36965 ft | 487 kts | 57° |
| 2026-04-25 14:47 | 11.52355 | -65.62768 | 36969 ft | 488 kts | 57° |
| 2026-04-25 14:48 | 11.56205 | -65.57050 | 36964 ft | 489 kts | 57° |
| 2026-04-25 14:48 | 11.60060 | -65.51321 | 36977 ft | 490 kts | 57° |
| 2026-04-25 14:49 | 11.63892 | -65.45622 | 36978 ft | 491 kts | 57° |
| 2026-04-25 14:49 | 11.67761 | -65.39867 | 36981 ft | 492 kts | 57° |
| 2026-04-25 14:50 | 11.71700 | -65.34138 | 36969 ft | 492 kts | 56° |
| 2026-04-25 14:50 | 11.75637 | -65.28480 | 36964 ft | 492 kts | 56° |
| 2026-04-25 14:51 | 11.79605 | -65.22762 | 36977 ft | 493 kts | 56° |
| 2026-04-25 14:51 | 11.83567 | -65.17033 | 36974 ft | 494 kts | 56° |
| 2026-04-25 14:52 | 11.87529 | -65.11292 | 36973 ft | 495 kts | 56° |
| 2026-04-25 14:52 | 11.90826 | -65.06514 | 36973 ft | 495 kts | 56° |
| 2026-04-25 14:53 | 11.95437 | -64.99828 | 36969 ft | 494 kts | 56° |
| 2026-04-25 14:53 | 11.99391 | -64.94091 | 36960 ft | 494 kts | 56° |
| 2026-04-25 14:54 | 12.03348 | -64.88347 | 36976 ft | 494 kts | 56° |
| 2026-04-25 14:54 | 12.07310 | -64.82592 | 36976 ft | 495 kts | 56° |
| 2026-04-25 14:55 | 12.11244 | -64.76874 | 36973 ft | 496 kts | 56° |
| 2026-04-25 14:55 | 12.15220 | -64.71092 | 36973 ft | 497 kts | 56° |
| 2026-04-25 14:56 | 12.19205 | -64.65293 | 36973 ft | 498 kts | 56° |
| 2026-04-25 14:56 | 12.23189 | -64.59492 | 36974 ft | 498 kts | 56° |
| 2026-04-25 14:57 | 12.27176 | -64.53682 | 36972 ft | 499 kts | 56° |
| 2026-04-25 14:57 | 12.31141 | -64.47901 | 36973 ft | 499 kts | 56° |
| 2026-04-25 14:58 | 12.35125 | -64.42089 | 36975 ft | 499 kts | 56° |
| 2026-04-25 14:58 | 12.39088 | -64.36264 | 36975 ft | 499 kts | 56° |
| 2026-04-25 14:59 | 12.43024 | -64.30424 | 36976 ft | 498 kts | 57° |
| 2026-04-25 14:59 | 12.46947 | -64.24598 | 36968 ft | 496 kts | 57° |
| 2026-04-25 15:00 | 12.50832 | -64.18832 | 36976 ft | 495 kts | 57° |
| 2026-04-25 15:00 | 12.54750 | -64.13019 | 36977 ft | 496 kts | 57° |
| 2026-04-25 15:01 | 12.58667 | -64.07203 | 36984 ft | 496 kts | 57° |
| 2026-04-25 15:01 | 12.62588 | -64.01376 | 36989 ft | 496 kts | 57° |
| 2026-04-25 15:02 | 12.66470 | -63.95604 | 36966 ft | 493 kts | 57° |
| 2026-04-25 15:02 | 12.70351 | -63.89831 | 36972 ft | 490 kts | 57° |
| 2026-04-25 15:03 | 12.74211 | -63.84082 | 36976 ft | 488 kts | 57° |
| 2026-04-25 15:03 | 12.78060 | -63.78348 | 36982 ft | 487 kts | 57° |
| 2026-04-25 15:04 | 12.81900 | -63.72630 | 36995 ft | 495 kts | 57° |
| 2026-04-25 15:04 | 12.85839 | -63.66783 | 36988 ft | 499 kts | 57° |
| 2026-04-25 15:05 | 12.90040 | -63.61087 | 36981 ft | 501 kts | 51° |
| 2026-04-25 15:06 | 12.96740 | -63.52917 | 36977 ft | 501 kts | 51° |
| 2026-04-25 15:06 | 13.01205 | -63.47442 | 36979 ft | 499 kts | 51° |
| 2026-04-25 15:07 | 13.05631 | -63.41942 | 36979 ft | 498 kts | 51° |
| 2026-04-25 15:07 | 13.10026 | -63.36454 | 36981 ft | 497 kts | 51° |
| 2026-04-25 15:08 | 13.14395 | -63.30994 | 36984 ft | 497 kts | 51° |
| 2026-04-25 15:08 | 13.18786 | -63.25506 | 36985 ft | 497 kts | 51° |
| 2026-04-25 15:09 | 13.23169 | -63.20027 | 36983 ft | 496 kts | 51° |
| 2026-04-25 15:09 | 13.29741 | -63.11806 | 36980 ft | 496 kts | 51° |
| 2026-04-25 15:10 | 13.34095 | -63.06355 | 36984 ft | 495 kts | 52° |
| 2026-04-25 15:11 | 13.40657 | -62.98134 | 36982 ft | 495 kts | 52° |
| 2026-04-25 15:11 | 13.44997 | -62.92692 | 36987 ft | 496 kts | 52° |
| 2026-04-25 15:12 | 13.51551 | -62.84467 | 36987 ft | 496 kts | 52° |
| 2026-04-25 15:12 | 13.54483 | -62.80786 | 36989 ft | 497 kts | 52° |
| 2026-04-25 15:13 | 13.62507 | -62.70701 | 36990 ft | 497 kts | 52° |
| 2026-04-25 15:14 | 13.66858 | -62.65227 | 36984 ft | 497 kts | 52° |
| 2026-04-25 15:14 | 13.71241 | -62.59711 | 36992 ft | 498 kts | 52° |
| 2026-04-25 15:15 | 13.75624 | -62.54189 | 36988 ft | 498 kts | 52° |
| 2026-04-25 15:15 | 13.80013 | -62.48658 | 36990 ft | 499 kts | 52° |
| 2026-04-25 15:16 | 13.84378 | -62.43153 | 36990 ft | 499 kts | 52° |
| 2026-04-25 15:16 | 13.90964 | -62.34839 | 36985 ft | 499 kts | 52° |
| 2026-04-25 15:17 | 13.97546 | -62.26522 | 36989 ft | 500 kts | 52° |
| 2026-04-25 15:18 | 14.01914 | -62.20999 | 36985 ft | 500 kts | 52° |
| 2026-04-25 15:18 | 14.08514 | -62.12646 | 36992 ft | 501 kts | 52° |
| 2026-04-25 15:19 | 14.11432 | -62.08950 | 36991 ft | 502 kts | 52° |
| 2026-04-25 15:19 | 14.17310 | -62.01500 | 36989 ft | 503 kts | 52° |
| 2026-04-25 15:20 | 14.21726 | -61.95899 | 36994 ft | 503 kts | 52° |
| 2026-04-25 15:20 | 14.25403 | -61.91233 | 36982 ft | 504 kts | 52° |
| 2026-04-25 15:21 | 14.30539 | -61.84708 | 36989 ft | 504 kts | 52° |
| 2026-04-25 15:21 | 14.34225 | -61.80025 | 36988 ft | 505 kts | 52° |
| 2026-04-25 15:22 | 14.38649 | -61.74398 | 36988 ft | 505 kts | 52° |
| 2026-04-25 15:22 | 14.43075 | -61.68765 | 36987 ft | 505 kts | 52° |
| 2026-04-25 15:23 | 14.47504 | -61.63125 | 36993 ft | 505 kts | 52° |
| 2026-04-25 15:23 | 14.51903 | -61.57518 | 36987 ft | 505 kts | 52° |
| 2026-04-25 15:24 | 14.56329 | -61.51873 | 36989 ft | 505 kts | 52° |
| 2026-04-25 15:24 | 14.60002 | -61.47185 | 36984 ft | 504 kts | 52° |
| 2026-04-25 15:25 | 14.65155 | -61.40605 | 36992 ft | 504 kts | 52° |
| 2026-04-25 15:25 | 14.69566 | -61.34966 | 36994 ft | 505 kts | 52° |
| 2026-04-25 15:26 | 14.73957 | -61.29350 | 36990 ft | 505 kts | 52° |
| 2026-04-25 15:26 | 14.78380 | -61.23689 | 36994 ft | 506 kts | 52° |
| 2026-04-25 15:27 | 14.82808 | -61.18016 | 37002 ft | 506 kts | 52° |
| 2026-04-25 15:28 | 14.89410 | -61.09551 | 36996 ft | 506 kts | 52° |
| 2026-04-25 15:28 | 14.93834 | -61.03880 | 36999 ft | 506 kts | 52° |
| 2026-04-25 15:29 | 14.98261 | -60.98200 | 36999 ft | 506 kts | 52° |
| 2026-04-25 15:29 | 15.02657 | -60.92554 | 37008 ft | 507 kts | 52° |
| 2026-04-25 15:30 | 15.07084 | -60.86864 | 37006 ft | 507 kts | 52° |
| 2026-04-25 15:30 | 15.11505 | -60.81176 | 37009 ft | 507 kts | 52° |
| 2026-04-25 15:31 | 15.15932 | -60.75477 | 37004 ft | 507 kts | 52° |
| 2026-04-25 15:31 | 15.20328 | -60.69813 | 37002 ft | 507 kts | 52° |
| 2026-04-25 15:32 | 15.24753 | -60.64108 | 37001 ft | 507 kts | 52° |
| 2026-04-25 15:32 | 15.29172 | -60.58406 | 37006 ft | 507 kts | 52° |
| 2026-04-25 15:33 | 15.35803 | -60.49843 | 37000 ft | 508 kts | 52° |
| 2026-04-25 15:33 | 15.40224 | -60.44128 | 36999 ft | 508 kts | 52° |
| 2026-04-25 15:34 | 15.44617 | -60.38445 | 37004 ft | 508 kts | 52° |
| 2026-04-25 15:34 | 15.48323 | -60.33648 | 37008 ft | 508 kts | 52° |
| 2026-04-25 15:35 | 15.55670 | -60.24127 | 37010 ft | 508 kts | 51° |
| 2026-04-25 15:36 | 15.62298 | -60.15528 | 37007 ft | 508 kts | 51° |
| 2026-04-25 15:36 | 15.66687 | -60.09829 | 37010 ft | 508 kts | 51° |
| 2026-04-25 15:37 | 15.71104 | -60.04089 | 37007 ft | 508 kts | 51° |
| 2026-04-25 15:37 | 15.75519 | -59.98346 | 37009 ft | 508 kts | 51° |
| 2026-04-25 15:38 | 15.79930 | -59.92605 | 37006 ft | 508 kts | 51° |
| 2026-04-25 15:38 | 15.84315 | -59.86893 | 37007 ft | 508 kts | 51° |
| 2026-04-25 15:39 | 15.88734 | -59.81132 | 37007 ft | 508 kts | 51° |
| 2026-04-25 15:39 | 15.93145 | -59.75378 | 37013 ft | 508 kts | 51° |
| 2026-04-25 15:40 | 15.96801 | -59.70604 | 37005 ft | 508 kts | 51° |
| 2026-04-25 15:40 | 16.01949 | -59.63876 | 37005 ft | 508 kts | 51° |
| 2026-04-25 15:41 | 16.06317 | -59.58163 | 37004 ft | 508 kts | 51° |
| 2026-04-25 15:41 | 16.10724 | -59.52395 | 37005 ft | 508 kts | 51° |
| 2026-04-25 15:42 | 16.15122 | -59.46633 | 37009 ft | 508 kts | 51° |
| 2026-04-25 15:42 | 16.19495 | -59.40902 | 37010 ft | 508 kts | 51° |
| 2026-04-25 15:43 | 16.23897 | -59.35129 | 37006 ft | 508 kts | 51° |
| 2026-04-25 15:43 | 16.28298 | -59.29349 | 37013 ft | 508 kts | 51° |
| 2026-04-25 15:44 | 16.32661 | -59.23615 | 37021 ft | 509 kts | 51° |
| 2026-04-25 15:44 | 16.37060 | -59.17828 | 37015 ft | 509 kts | 51° |
| 2026-04-25 15:45 | 16.41464 | -59.12030 | 37017 ft | 510 kts | 51° |
| 2026-04-25 15:45 | 16.45126 | -59.07205 | 37010 ft | 510 kts | 51° |
| 2026-04-25 15:46 | 16.50254 | -59.00444 | 37011 ft | 510 kts | 51° |
| 2026-04-25 15:46 | 16.54655 | -58.94636 | 37024 ft | 510 kts | 51° |
| 2026-04-25 15:47 | 16.59065 | -58.88811 | 37017 ft | 511 kts | 51° |
| 2026-04-25 15:47 | 16.63439 | -58.83028 | 37009 ft | 511 kts | 51° |
| 2026-04-25 15:48 | 16.67845 | -58.77199 | 37029 ft | 512 kts | 51° |
| 2026-04-25 15:48 | 16.72256 | -58.71359 | 37021 ft | 512 kts | 51° |
| 2026-04-25 15:49 | 16.76669 | -58.65510 | 37020 ft | 513 kts | 51° |
| 2026-04-25 15:49 | 16.81084 | -58.59655 | 37015 ft | 513 kts | 51° |
| 2026-04-25 15:50 | 16.85502 | -58.53790 | 37022 ft | 513 kts | 51° |
| 2026-04-25 15:50 | 16.89891 | -58.47959 | 37013 ft | 513 kts | 51° |
| 2026-04-25 15:51 | 16.93586 | -58.43047 | 37022 ft | 513 kts | 51° |
| 2026-04-25 15:51 | 16.98713 | -58.36223 | 37012 ft | 513 kts | 51° |
| 2026-04-25 15:52 | 17.03124 | -58.30349 | 37032 ft | 513 kts | 51° |
| 2026-04-25 15:52 | 17.07527 | -58.24479 | 37018 ft | 513 kts | 51° |
| 2026-04-25 15:53 | 17.11910 | -58.18631 | 37024 ft | 513 kts | 51° |
| 2026-04-25 15:53 | 17.16317 | -58.12746 | 37023 ft | 513 kts | 51° |
| 2026-04-25 15:54 | 17.20719 | -58.06863 | 37027 ft | 513 kts | 51° |
| 2026-04-25 15:54 | 17.25094 | -58.01010 | 37026 ft | 513 kts | 51° |
| 2026-04-25 15:55 | 17.29495 | -57.95118 | 37026 ft | 513 kts | 51° |
| 2026-04-25 15:55 | 17.33889 | -57.89229 | 37031 ft | 513 kts | 51° |
| 2026-04-25 15:56 | 17.38294 | -57.83322 | 37027 ft | 513 kts | 51° |
| 2026-04-25 15:56 | 17.42662 | -57.77458 | 37026 ft | 514 kts | 51° |
| 2026-04-25 15:57 | 17.47053 | -57.71558 | 37037 ft | 514 kts | 51° |
| 2026-04-25 15:57 | 17.51454 | -57.65640 | 37038 ft | 514 kts | 51° |
| 2026-04-25 15:58 | 17.55847 | -57.59727 | 37029 ft | 514 kts | 51° |
| 2026-04-25 15:58 | 17.60238 | -57.53810 | 37028 ft | 514 kts | 51° |
| 2026-04-25 15:59 | 17.64634 | -57.47883 | 37033 ft | 514 kts | 51° |
| 2026-04-25 15:59 | 17.69026 | -57.41958 | 37033 ft | 514 kts | 51° |
| 2026-04-25 16:00 | 17.71932 | -57.38035 | 37027 ft | 514 kts | 51° |
| 2026-04-25 16:00 | 17.77773 | -57.30139 | 37030 ft | 513 kts | 51° |
| 2026-04-25 16:01 | 17.82147 | -57.24219 | 37035 ft | 513 kts | 51° |
| 2026-04-25 16:01 | 17.86523 | -57.18292 | 37034 ft | 513 kts | 51° |
| 2026-04-25 16:02 | 17.90905 | -57.12351 | 37038 ft | 514 kts | 51° |
| 2026-04-25 16:02 | 17.95248 | -57.06457 | 37040 ft | 514 kts | 51° |
| 2026-04-25 16:03 | 17.99597 | -57.00481 | 37030 ft | 515 kts | 55° |
| 2026-04-25 16:03 | 18.02997 | -56.93854 | 37045 ft | 518 kts | 65° |
| 2026-04-25 16:04 | 18.06031 | -56.86974 | 37035 ft | 518 kts | 66° |
| 2026-04-25 16:04 | 18.09056 | -56.80129 | 37029 ft | 515 kts | 65° |
| 2026-04-25 16:05 | 18.12098 | -56.73367 | 37029 ft | 513 kts | 65° |
| 2026-04-25 16:06 | 18.16719 | -56.63177 | 37035 ft | 514 kts | 65° |
| 2026-04-25 16:06 | 18.19797 | -56.56385 | 37036 ft | 514 kts | 65° |
| 2026-04-25 16:07 | 18.22872 | -56.49584 | 37035 ft | 514 kts | 65° |
| 2026-04-25 16:07 | 18.25924 | -56.42823 | 37035 ft | 514 kts | 65° |
| 2026-04-25 16:08 | 18.28990 | -56.36022 | 37034 ft | 514 kts | 65° |
| 2026-04-25 16:08 | 18.32052 | -56.29224 | 37038 ft | 514 kts | 65° |
| 2026-04-25 16:09 | 18.35099 | -56.22450 | 37034 ft | 514 kts | 65° |
| 2026-04-25 16:09 | 18.38156 | -56.15648 | 37043 ft | 514 kts | 65° |
| 2026-04-25 16:10 | 18.41216 | -56.08830 | 37036 ft | 515 kts | 65° |
| 2026-04-25 16:10 | 18.44277 | -56.02004 | 37038 ft | 515 kts | 65° |
| 2026-04-25 16:11 | 18.46822 | -55.96321 | 37039 ft | 516 kts | 65° |
| 2026-04-25 16:11 | 18.49884 | -55.89476 | 37039 ft | 516 kts | 65° |
| 2026-04-25 16:12 | 18.52943 | -55.82630 | 37036 ft | 516 kts | 65° |
| 2026-04-25 16:12 | 18.56001 | -55.75781 | 37040 ft | 515 kts | 65° |
| 2026-04-25 16:13 | 18.59031 | -55.68984 | 37032 ft | 515 kts | 65° |
| 2026-04-25 16:13 | 18.62081 | -55.62135 | 37045 ft | 515 kts | 65° |
| 2026-04-25 16:14 | 18.65129 | -55.55281 | 37039 ft | 516 kts | 65° |
| 2026-04-25 16:14 | 18.68161 | -55.48457 | 37046 ft | 516 kts | 65° |
| 2026-04-25 16:15 | 18.71207 | -55.41592 | 37037 ft | 517 kts | 65° |
| 2026-04-25 16:15 | 18.74253 | -55.34720 | 37041 ft | 517 kts | 65° |
| 2026-04-25 16:16 | 18.77295 | -55.27848 | 37047 ft | 517 kts | 65° |
| 2026-04-25 16:16 | 18.80325 | -55.20997 | 37044 ft | 517 kts | 65° |
| 2026-04-25 16:17 | 18.83371 | -55.14098 | 37045 ft | 518 kts | 65° |
| 2026-04-25 16:17 | 18.86414 | -55.07202 | 37043 ft | 517 kts | 65° |
| 2026-04-25 16:18 | 18.89433 | -55.00349 | 37040 ft | 517 kts | 65° |
| 2026-04-25 16:18 | 18.92466 | -54.93456 | 37042 ft | 516 kts | 65° |
| 2026-04-25 16:19 | 18.95488 | -54.86582 | 37039 ft | 515 kts | 65° |
| 2026-04-25 16:19 | 18.98507 | -54.79705 | 37043 ft | 516 kts | 65° |
| 2026-04-25 16:20 | 19.03035 | -54.69376 | 37052 ft | 516 kts | 65° |
| 2026-04-25 16:21 | 19.07546 | -54.59067 | 37047 ft | 517 kts | 65° |
| 2026-04-25 16:21 | 19.10566 | -54.52152 | 37046 ft | 518 kts | 65° |
| 2026-04-25 16:22 | 19.13583 | -54.45240 | 37047 ft | 517 kts | 65° |
| 2026-04-25 16:22 | 19.16597 | -54.38323 | 37045 ft | 518 kts | 65° |
| 2026-04-25 16:23 | 19.19616 | -54.31389 | 37048 ft | 518 kts | 65° |
| 2026-04-25 16:23 | 19.22614 | -54.24492 | 37042 ft | 519 kts | 65° |
| 2026-04-25 16:24 | 19.25630 | -54.17547 | 37048 ft | 518 kts | 65° |
| 2026-04-25 16:24 | 19.28644 | -54.10597 | 37045 ft | 518 kts | 65° |
| 2026-04-25 16:25 | 19.31629 | -54.03707 | 37050 ft | 518 kts | 65° |
| 2026-04-25 16:25 | 19.34633 | -53.96761 | 37048 ft | 518 kts | 65° |
| 2026-04-25 16:26 | 19.37634 | -53.89817 | 37051 ft | 518 kts | 65° |
| 2026-04-25 16:26 | 19.40634 | -53.82864 | 37049 ft | 519 kts | 65° |
| 2026-04-25 16:27 | 19.43635 | -53.75901 | 37050 ft | 519 kts | 65° |
| 2026-04-25 16:27 | 19.46611 | -53.68988 | 37047 ft | 519 kts | 65° |
| 2026-04-25 16:28 | 19.49604 | -53.62027 | 37053 ft | 519 kts | 65° |
| 2026-04-25 16:28 | 19.52601 | -53.55046 | 37055 ft | 520 kts | 65° |
| 2026-04-25 16:29 | 19.55600 | -53.48055 | 37056 ft | 521 kts | 65° |
| 2026-04-25 16:29 | 19.58582 | -53.41092 | 37053 ft | 522 kts | 65° |
| 2026-04-25 16:30 | 19.61590 | -53.34060 | 37050 ft | 523 kts | 65° |
| 2026-04-25 16:30 | 19.64595 | -53.27025 | 37053 ft | 523 kts | 65° |
| 2026-04-25 16:31 | 19.67600 | -53.19981 | 37056 ft | 523 kts | 65° |
| 2026-04-25 16:31 | 19.70587 | -53.12972 | 37056 ft | 524 kts | 65° |
| 2026-04-25 16:32 | 19.73590 | -53.05917 | 37054 ft | 524 kts | 65° |
| 2026-04-25 16:32 | 19.76591 | -52.98855 | 37050 ft | 524 kts | 65° |
| 2026-04-25 16:33 | 19.79587 | -52.91795 | 37047 ft | 524 kts | 65° |
| 2026-04-25 16:33 | 19.82563 | -52.84775 | 37055 ft | 523 kts | 65° |
| 2026-04-25 16:34 | 19.85552 | -52.77714 | 37067 ft | 523 kts | 65° |
| 2026-04-25 16:34 | 19.88538 | -52.70653 | 37055 ft | 524 kts | 65° |
| 2026-04-25 16:35 | 19.91523 | -52.63584 | 37056 ft | 524 kts | 65° |
| 2026-04-25 16:35 | 19.94504 | -52.56514 | 37055 ft | 524 kts | 65° |
| 2026-04-25 16:36 | 19.97468 | -52.49476 | 37053 ft | 524 kts | 65° |
| 2026-04-25 16:36 | 20.00440 | -52.42409 | 37052 ft | 524 kts | 65° |
| 2026-04-25 16:37 | 20.03410 | -52.35337 | 37056 ft | 523 kts | 65° |
| 2026-04-25 16:37 | 20.06374 | -52.28272 | 37044 ft | 522 kts | 65° |
| 2026-04-25 16:38 | 20.09328 | -52.21221 | 37051 ft | 521 kts | 65° |
| 2026-04-25 16:38 | 20.12257 | -52.14220 | 37051 ft | 520 kts | 65° |
| 2026-04-25 16:39 | 20.15200 | -52.07176 | 37053 ft | 520 kts | 65° |
| 2026-04-25 16:39 | 20.18134 | -52.00145 | 37060 ft | 519 kts | 65° |
| 2026-04-25 16:40 | 20.21068 | -51.93105 | 37055 ft | 520 kts | 65° |
| 2026-04-25 16:40 | 20.24006 | -51.86045 | 37057 ft | 521 kts | 65° |
| 2026-04-25 16:41 | 20.26923 | -51.79026 | 37060 ft | 522 kts | 65° |
| 2026-04-25 16:41 | 20.31340 | -51.68380 | 37058 ft | 523 kts | 65° |
| 2026-04-25 16:42 | 20.34282 | -51.61276 | 37058 ft | 524 kts | 65° |
| 2026-04-25 16:42 | 20.37203 | -51.54213 | 37056 ft | 524 kts | 65° |
| 2026-04-25 16:43 | 20.40146 | -51.47089 | 37058 ft | 525 kts | 65° |
| 2026-04-25 16:43 | 20.43086 | -51.39961 | 37056 ft | 525 kts | 65° |
| 2026-04-25 16:44 | 20.46025 | -51.32827 | 37053 ft | 525 kts | 65° |
| 2026-04-25 16:44 | 20.48941 | -51.25740 | 37057 ft | 524 kts | 65° |
| 2026-04-25 16:45 | 20.51870 | -51.18610 | 37062 ft | 524 kts | 65° |
| 2026-04-25 16:45 | 20.54798 | -51.11472 | 37055 ft | 525 kts | 65° |
| 2026-04-25 16:46 | 20.57728 | -51.04320 | 37059 ft | 525 kts | 65° |
| 2026-04-25 16:46 | 20.59666 | -50.99586 | 37057 ft | 525 kts | 65° |
| 2026-04-25 16:47 | 20.63558 | -50.90061 | 37058 ft | 526 kts | 65° |
| 2026-04-25 16:47 | 20.66481 | -50.82896 | 37059 ft | 526 kts | 65° |
| 2026-04-25 16:48 | 20.69402 | -50.75726 | 37062 ft | 526 kts | 65° |
| 2026-04-25 16:48 | 20.72306 | -50.68588 | 37065 ft | 527 kts | 65° |
| 2026-04-25 16:49 | 20.75229 | -50.61394 | 37066 ft | 527 kts | 65° |
| 2026-04-25 16:49 | 20.78152 | -50.54189 | 37061 ft | 527 kts | 65° |
| 2026-04-25 16:50 | 20.81067 | -50.46993 | 37056 ft | 527 kts | 65° |
| 2026-04-25 16:50 | 20.83975 | -50.39803 | 37061 ft | 527 kts | 65° |
| 2026-04-25 16:51 | 20.86885 | -50.32600 | 37061 ft | 528 kts | 65° |
| 2026-04-25 16:51 | 20.88813 | -50.27823 | 37061 ft | 528 kts | 65° |
| 2026-04-25 16:52 | 20.92685 | -50.18211 | 37059 ft | 528 kts | 65° |
| 2026-04-25 16:52 | 20.95586 | -50.10998 | 37064 ft | 528 kts | 65° |
| 2026-04-25 16:53 | 20.99912 | -50.00152 | 37063 ft | 528 kts | 68° |
| 2026-04-25 16:54 | 21.01925 | -49.92630 | 37066 ft | 529 kts | 76° |
| 2026-04-25 16:54 | 21.03608 | -49.84932 | 37065 ft | 530 kts | 76° |
| 2026-04-25 16:55 | 21.05292 | -49.77289 | 37063 ft | 530 kts | 76° |
| 2026-04-25 16:55 | 21.07041 | -49.69617 | 37064 ft | 530 kts | 75° |
| 2026-04-25 16:56 | 21.08816 | -49.61946 | 37061 ft | 530 kts | 75° |
| 2026-04-25 16:56 | 21.10579 | -49.54320 | 37059 ft | 530 kts | 75° |
| 2026-04-25 16:57 | 21.12347 | -49.46642 | 37062 ft | 530 kts | 75° |
| 2026-04-25 16:57 | 21.14107 | -49.38967 | 37058 ft | 530 kts | 75° |
| 2026-04-25 16:58 | 21.15865 | -49.31286 | 37060 ft | 530 kts | 75° |
| 2026-04-25 16:58 | 21.17616 | -49.23613 | 37064 ft | 530 kts | 75° |
| 2026-04-25 16:59 | 21.19364 | -49.15941 | 37059 ft | 530 kts | 75° |
| 2026-04-25 16:59 | 21.21108 | -49.08267 | 37084 ft | 530 kts | 75° |
| 2026-04-25 17:00 | 21.22848 | -49.00597 | 37062 ft | 530 kts | 75° |
| 2026-04-25 17:00 | 21.24574 | -48.92971 | 37072 ft | 530 kts | 75° |
| 2026-04-25 17:01 | 21.26310 | -48.85285 | 37073 ft | 530 kts | 75° |
| 2026-04-25 17:01 | 21.28039 | -48.77609 | 37067 ft | 530 kts | 75° |
| 2026-04-25 17:02 | 21.29478 | -48.71212 | 37073 ft | 530 kts | 75° |
| 2026-04-25 17:02 | 21.31204 | -48.63520 | 37068 ft | 530 kts | 76° |
| 2026-04-25 17:03 | 21.32928 | -48.55815 | 37076 ft | 530 kts | 75° |
| 2026-04-25 17:03 | 21.34639 | -48.48158 | 37070 ft | 530 kts | 75° |
| 2026-04-25 17:04 | 21.36354 | -48.40462 | 37059 ft | 530 kts | 75° |
| 2026-04-25 17:04 | 21.38067 | -48.32758 | 37066 ft | 530 kts | 75° |
| 2026-04-25 17:05 | 21.39774 | -48.25063 | 37071 ft | 530 kts | 75° |
| 2026-04-25 17:05 | 21.42332 | -48.13500 | 37076 ft | 530 kts | 75° |
| 2026-04-25 17:06 | 21.44032 | -48.05789 | 37075 ft | 531 kts | 75° |
| 2026-04-25 17:06 | 21.45717 | -47.98133 | 37070 ft | 531 kts | 76° |
| 2026-04-25 17:07 | 21.47413 | -47.90408 | 37073 ft | 531 kts | 76° |
| 2026-04-25 17:07 | 21.49104 | -47.82689 | 37074 ft | 531 kts | 76° |
| 2026-04-25 17:08 | 21.50791 | -47.74968 | 37074 ft | 531 kts | 76° |
| 2026-04-25 17:08 | 21.52463 | -47.67300 | 37083 ft | 531 kts | 75° |
| 2026-04-25 17:09 | 21.54142 | -47.59579 | 37074 ft | 531 kts | 75° |
| 2026-04-25 17:09 | 21.55817 | -47.51863 | 37069 ft | 530 kts | 76° |
| 2026-04-25 17:10 | 21.57489 | -47.44136 | 37073 ft | 530 kts | 76° |
| 2026-04-25 17:10 | 21.59159 | -47.36406 | 37067 ft | 530 kts | 76° |
| 2026-04-25 17:11 | 21.60815 | -47.28721 | 37075 ft | 530 kts | 76° |
| 2026-04-25 17:11 | 21.62475 | -47.20996 | 37090 ft | 530 kts | 75° |
| 2026-04-25 17:12 | 21.64135 | -47.13256 | 37070 ft | 530 kts | 75° |
| 2026-04-25 17:12 | 21.65789 | -47.05528 | 37076 ft | 530 kts | 75° |
| 2026-04-25 17:13 | 21.67160 | -46.99106 | 37073 ft | 530 kts | 76° |
| 2026-04-25 17:13 | 21.69073 | -46.90123 | 37075 ft | 530 kts | 76° |
| 2026-04-25 17:14 | 21.70715 | -46.82391 | 37077 ft | 529 kts | 76° |
| 2026-04-25 17:14 | 21.72354 | -46.74657 | 37093 ft | 529 kts | 75° |
| 2026-04-25 17:15 | 21.73976 | -46.66983 | 37078 ft | 529 kts | 75° |
| 2026-04-25 17:15 | 21.75605 | -46.59257 | 37080 ft | 529 kts | 75° |
| 2026-04-25 17:16 | 21.77231 | -46.51529 | 37080 ft | 529 kts | 75° |
| 2026-04-25 17:16 | 21.78841 | -46.43859 | 37081 ft | 528 kts | 75° |
| 2026-04-25 17:17 | 21.80457 | -46.36137 | 37073 ft | 528 kts | 76° |
| 2026-04-25 17:17 | 21.82070 | -46.28415 | 37091 ft | 529 kts | 75° |
| 2026-04-25 17:18 | 21.83680 | -46.20687 | 37081 ft | 529 kts | 75° |
| 2026-04-25 17:18 | 21.85277 | -46.12999 | 37085 ft | 529 kts | 75° |
| 2026-04-25 17:19 | 21.86881 | -46.05262 | 37081 ft | 529 kts | 76° |
| 2026-04-25 17:19 | 21.88484 | -45.97513 | 37083 ft | 529 kts | 76° |
| 2026-04-25 17:20 | 21.90080 | -45.89774 | 37081 ft | 529 kts | 76° |
| 2026-04-25 17:20 | 21.91673 | -45.82030 | 37091 ft | 530 kts | 76° |
| 2026-04-25 17:21 | 21.93255 | -45.74323 | 37081 ft | 530 kts | 76° |
| 2026-04-25 17:21 | 21.94842 | -45.66570 | 37082 ft | 530 kts | 76° |
| 2026-04-25 17:22 | 21.96162 | -45.60109 | 37083 ft | 530 kts | 76° |
| 2026-04-25 17:22 | 21.98011 | -45.51034 | 37087 ft | 530 kts | 76° |
| 2026-04-25 17:23 | 21.99575 | -45.43337 | 37092 ft | 530 kts | 76° |
| 2026-04-25 17:23 | 22.00975 | -45.36429 | 37084 ft | 530 kts | 76° |
| 2026-04-25 17:24 | 22.02392 | -45.29425 | 37084 ft | 530 kts | 76° |
| 2026-04-25 17:24 | 22.03967 | -45.21614 | 37087 ft | 530 kts | 76° |
| 2026-04-25 17:25 | 22.05516 | -45.13919 | 37087 ft | 530 kts | 76° |
| 2026-04-25 17:25 | 22.07082 | -45.06115 | 37087 ft | 530 kts | 76° |
| 2026-04-25 17:26 | 22.08637 | -44.98346 | 37090 ft | 530 kts | 76° |
| 2026-04-25 17:26 | 22.10196 | -44.90542 | 37090 ft | 532 kts | 76° |
| 2026-04-25 17:27 | 22.11735 | -44.82812 | 37086 ft | 531 kts | 76° |
| 2026-04-25 17:27 | 22.12772 | -44.77597 | 37089 ft | 531 kts | 76° |
| 2026-04-25 17:28 | 22.14827 | -44.67225 | 37084 ft | 531 kts | 76° |
| 2026-04-25 17:28 | 22.16369 | -44.59424 | 37089 ft | 531 kts | 76° |
| 2026-04-25 17:29 | 22.17898 | -44.51663 | 37087 ft | 531 kts | 76° |
| 2026-04-25 17:29 | 22.19445 | -44.43798 | 37087 ft | 531 kts | 76° |
| 2026-04-25 17:30 | 22.20974 | -44.35995 | 37089 ft | 531 kts | 76° |
| 2026-04-25 17:30 | 22.22486 | -44.28265 | 37092 ft | 531 kts | 76° |
| 2026-04-25 17:31 | 22.24010 | -44.20448 | 37096 ft | 531 kts | 76° |
| 2026-04-25 17:31 | 22.25527 | -44.12652 | 37088 ft | 531 kts | 76° |
| 2026-04-25 17:32 | 22.27042 | -44.04842 | 37090 ft | 531 kts | 76° |
| 2026-04-25 17:32 | 22.28546 | -43.97064 | 37091 ft | 531 kts | 76° |
| 2026-04-25 17:33 | 22.30055 | -43.89244 | 37096 ft | 531 kts | 76° |
| 2026-04-25 17:33 | 22.31564 | -43.81401 | 37101 ft | 532 kts | 76° |
| 2026-04-25 17:34 | 22.33065 | -43.73580 | 37085 ft | 532 kts | 76° |
| 2026-04-25 17:34 | 22.34515 | -43.66004 | 37092 ft | 532 kts | 76° |
| 2026-04-25 17:35 | 22.35846 | -43.59034 | 37097 ft | 533 kts | 76° |
| 2026-04-25 17:35 | 22.37338 | -43.51199 | 37090 ft | 533 kts | 76° |
| 2026-04-25 17:36 | 22.38828 | -43.43350 | 37097 ft | 533 kts | 76° |
| 2026-04-25 17:36 | 22.40316 | -43.35492 | 37097 ft | 534 kts | 76° |
| 2026-04-25 17:37 | 22.41802 | -43.27625 | 37075 ft | 534 kts | 76° |
| 2026-04-25 17:37 | 22.43282 | -43.19763 | 37094 ft | 533 kts | 76° |
| 2026-04-25 17:38 | 22.44260 | -43.14557 | 37081 ft | 532 kts | 76° |
| 2026-04-25 17:38 | 22.45997 | -43.05288 | 37091 ft | 532 kts | 76° |
| 2026-04-25 17:39 | 22.47454 | -42.97488 | 37089 ft | 531 kts | 76° |
| 2026-04-25 17:39 | 22.48914 | -42.89654 | 37103 ft | 531 kts | 76° |
| 2026-04-25 17:40 | 22.50375 | -42.81788 | 37097 ft | 531 kts | 76° |
| 2026-04-25 17:40 | 22.51829 | -42.73940 | 37090 ft | 531 kts | 76° |
| 2026-04-25 17:41 | 22.53270 | -42.66141 | 37091 ft | 532 kts | 76° |
| 2026-04-25 17:41 | 22.54719 | -42.58275 | 37103 ft | 533 kts | 76° |
| 2026-04-25 17:42 | 22.56166 | -42.50400 | 37094 ft | 533 kts | 76° |
| 2026-04-25 17:42 | 22.57610 | -42.42516 | 37096 ft | 534 kts | 76° |
| 2026-04-25 17:43 | 22.59035 | -42.34713 | 37094 ft | 534 kts | 76° |
| 2026-04-25 17:43 | 22.60470 | -42.26831 | 37096 ft | 534 kts | 76° |
| 2026-04-25 17:44 | 22.61903 | -42.18938 | 37096 ft | 534 kts | 76° |
| 2026-04-25 17:44 | 22.63333 | -42.11041 | 37095 ft | 534 kts | 76° |
| 2026-04-25 17:45 | 22.64283 | -42.05783 | 37099 ft | 533 kts | 76° |
| 2026-04-25 17:45 | 22.66174 | -41.95279 | 37102 ft | 533 kts | 76° |
| 2026-04-25 17:46 | 22.67590 | -41.87393 | 37098 ft | 533 kts | 76° |
| 2026-04-25 17:46 | 22.69004 | -41.79490 | 37095 ft | 533 kts | 76° |
| 2026-04-25 17:47 | 22.70406 | -41.71632 | 37100 ft | 533 kts | 76° |
| 2026-04-25 17:47 | 22.71573 | -41.65076 | 37100 ft | 533 kts | 76° |
| 2026-04-25 17:48 | 22.73612 | -41.53573 | 37098 ft | 532 kts | 76° |
| 2026-04-25 17:49 | 22.74773 | -41.47009 | 37101 ft | 532 kts | 76° |
| 2026-04-25 17:49 | 22.76162 | -41.39129 | 37099 ft | 532 kts | 76° |
| 2026-04-25 17:50 | 22.77547 | -41.31249 | 37109 ft | 532 kts | 76° |
| 2026-04-25 17:50 | 22.78927 | -41.23372 | 37102 ft | 532 kts | 76° |
| 2026-04-25 17:51 | 22.80310 | -41.15455 | 37104 ft | 532 kts | 76° |
| 2026-04-25 17:51 | 22.81688 | -41.07539 | 37104 ft | 532 kts | 76° |
| 2026-04-25 17:52 | 22.83057 | -40.99654 | 37106 ft | 533 kts | 76° |
| 2026-04-25 17:52 | 22.84413 | -40.91821 | 37111 ft | 533 kts | 76° |
| 2026-04-25 17:53 | 22.85778 | -40.83915 | 37100 ft | 533 kts | 76° |
| 2026-04-25 17:53 | 22.87130 | -40.76052 | 37101 ft | 533 kts | 76° |
| 2026-04-25 17:54 | 22.88488 | -40.68138 | 37112 ft | 533 kts | 76° |
| 2026-04-25 17:54 | 22.89835 | -40.60261 | 37103 ft | 533 kts | 76° |
| 2026-04-25 17:55 | 22.91187 | -40.52329 | 37100 ft | 533 kts | 76° |
| 2026-04-25 17:55 | 22.92529 | -40.44428 | 37107 ft | 534 kts | 76° |
| 2026-04-25 17:56 | 22.93873 | -40.36499 | 37105 ft | 534 kts | 76° |
| 2026-04-25 17:56 | 22.95219 | -40.28526 | 37102 ft | 535 kts | 76° |
| 2026-04-25 17:57 | 22.96542 | -40.20666 | 37105 ft | 535 kts | 76° |
| 2026-04-25 17:57 | 22.97883 | -40.12671 | 37104 ft | 536 kts | 76° |
| 2026-04-25 17:58 | 22.99192 | -40.04701 | 37100 ft | 537 kts | 79° |
| 2026-04-25 17:58 | 22.99198 | -39.96544 | 37111 ft | 543 kts | 97° |
| 2026-04-25 17:59 | 22.97480 | -39.88582 | 37102 ft | 542 kts | 105° |
| 2026-04-25 17:59 | 22.95505 | -39.80735 | 37100 ft | 541 kts | 105° |
| 2026-04-25 18:00 | 22.93558 | -39.72835 | 37098 ft | 541 kts | 105° |
| 2026-04-25 18:00 | 22.91662 | -39.64923 | 37116 ft | 544 kts | 104° |
| 2026-04-25 18:01 | 22.89769 | -39.56957 | 37115 ft | 545 kts | 104° |
| 2026-04-25 18:01 | 22.87877 | -39.49023 | 37105 ft | 546 kts | 104° |
| 2026-04-25 18:02 | 22.85968 | -39.41050 | 37098 ft | 545 kts | 104° |
| 2026-04-25 18:02 | 22.84066 | -39.33136 | 37105 ft | 544 kts | 104° |
| 2026-04-25 18:03 | 22.82144 | -39.25158 | 37103 ft | 544 kts | 104° |
| 2026-04-25 18:03 | 22.80244 | -39.17289 | 37102 ft | 544 kts | 104° |
| 2026-04-25 18:04 | 22.78332 | -39.09387 | 37108 ft | 544 kts | 104° |
| 2026-04-25 18:04 | 22.76389 | -39.01377 | 37103 ft | 544 kts | 104° |
| 2026-04-25 18:05 | 22.74478 | -38.93514 | 37098 ft | 543 kts | 105° |
| 2026-04-25 18:05 | 22.72541 | -38.85565 | 37102 ft | 542 kts | 105° |
| 2026-04-25 18:06 | 22.70613 | -38.77670 | 37102 ft | 542 kts | 105° |
| 2026-04-25 18:06 | 22.68689 | -38.69810 | 37105 ft | 542 kts | 105° |
| 2026-04-25 18:07 | 22.66760 | -38.61945 | 37102 ft | 542 kts | 105° |
| 2026-04-25 18:07 | 22.64816 | -38.54042 | 37106 ft | 542 kts | 105° |
| 2026-04-25 18:08 | 22.62873 | -38.46158 | 37097 ft | 542 kts | 105° |
| 2026-04-25 18:08 | 22.60936 | -38.38315 | 37103 ft | 541 kts | 105° |
| 2026-04-25 18:09 | 22.58990 | -38.30454 | 37101 ft | 541 kts | 105° |
| 2026-04-25 18:09 | 22.57036 | -38.22580 | 37104 ft | 541 kts | 105° |
| 2026-04-25 18:10 | 22.55075 | -38.14693 | 37104 ft | 542 kts | 105° |
| 2026-04-25 18:10 | 22.53105 | -38.06790 | 37104 ft | 542 kts | 105° |
| 2026-04-25 18:11 | 22.51136 | -37.98907 | 37105 ft | 543 kts | 105° |
| 2026-04-25 18:11 | 22.49178 | -37.91087 | 37099 ft | 543 kts | 105° |
| 2026-04-25 18:12 | 22.47205 | -37.83220 | 37106 ft | 544 kts | 105° |
| 2026-04-25 18:12 | 22.45214 | -37.75304 | 37104 ft | 544 kts | 105° |
| 2026-04-25 18:13 | 22.43224 | -37.67407 | 37109 ft | 545 kts | 105° |
| 2026-04-25 18:13 | 22.41223 | -37.59486 | 37104 ft | 545 kts | 105° |
| 2026-04-25 18:14 | 22.38231 | -37.47674 | 37096 ft | 544 kts | 105° |
| 2026-04-25 18:14 | 22.36218 | -37.39749 | 37102 ft | 544 kts | 105° |
| 2026-04-25 18:15 | 22.34212 | -37.31867 | 37104 ft | 544 kts | 105° |
| 2026-04-25 18:15 | 22.32197 | -37.23967 | 37105 ft | 544 kts | 105° |
| 2026-04-25 18:16 | 22.30204 | -37.16172 | 37109 ft | 545 kts | 105° |
| 2026-04-25 18:17 | 22.27165 | -37.04315 | 37086 ft | 545 kts | 105° |
| 2026-04-25 18:17 | 22.25137 | -36.96425 | 37105 ft | 544 kts | 105° |
| 2026-04-25 18:18 | 22.23105 | -36.88538 | 37105 ft | 544 kts | 105° |
| 2026-04-25 18:18 | 22.21069 | -36.80650 | 37103 ft | 544 kts | 105° |
| 2026-04-25 18:19 | 22.19042 | -36.72816 | 37110 ft | 544 kts | 105° |
| 2026-04-25 18:19 | 22.17001 | -36.64941 | 37104 ft | 545 kts | 105° |
| 2026-04-25 18:20 | 22.14956 | -36.57072 | 37103 ft | 545 kts | 105° |
| 2026-04-25 18:20 | 22.12916 | -36.49238 | 37093 ft | 544 kts | 105° |
| 2026-04-25 18:21 | 22.10853 | -36.41332 | 37102 ft | 544 kts | 105° |
| 2026-04-25 18:21 | 22.08803 | -36.33490 | 37104 ft | 543 kts | 105° |
| 2026-04-25 18:22 | 22.06762 | -36.25699 | 37112 ft | 543 kts | 105° |
| 2026-04-25 18:22 | 22.04695 | -36.17828 | 37102 ft | 543 kts | 105° |
| 2026-04-25 18:23 | 22.02635 | -36.09995 | 37106 ft | 544 kts | 105° |
| 2026-04-25 18:23 | 22.00567 | -36.02148 | 37093 ft | 543 kts | 105° |
| 2026-04-25 18:24 | 21.98231 | -35.94410 | 37103 ft | 543 kts | 111° |
| 2026-04-25 18:24 | 21.95507 | -35.86847 | 37105 ft | 542 kts | 112° |
| 2026-04-25 18:25 | 21.92752 | -35.79320 | 37100 ft | 542 kts | 112° |
| 2026-04-25 18:25 | 21.90036 | -35.71736 | 37108 ft | 543 kts | 111° |
| 2026-04-25 18:26 | 21.87347 | -35.64122 | 37103 ft | 543 kts | 111° |
| 2026-04-25 18:26 | 21.84667 | -35.56526 | 37087 ft | 543 kts | 111° |
| 2026-04-25 18:27 | 21.81975 | -35.48920 | 37110 ft | 542 kts | 111° |
| 2026-04-25 18:27 | 21.79278 | -35.41323 | 37099 ft | 542 kts | 111° |
| 2026-04-25 18:28 | 21.76591 | -35.33771 | 37102 ft | 542 kts | 111° |
| 2026-04-25 18:28 | 21.73900 | -35.26217 | 37102 ft | 542 kts | 111° |
| 2026-04-25 18:29 | 21.70292 | -35.16108 | 37104 ft | 543 kts | 111° |
| 2026-04-25 18:30 | 21.64870 | -35.00961 | 37095 ft | 542 kts | 111° |
| 2026-04-25 18:30 | 21.62160 | -34.93409 | 37102 ft | 542 kts | 111° |
| 2026-04-25 18:31 | 21.59432 | -34.85817 | 37107 ft | 542 kts | 111° |
| 2026-04-25 18:31 | 21.56720 | -34.78284 | 37099 ft | 542 kts | 111° |
| 2026-04-25 18:32 | 21.53993 | -34.70720 | 37105 ft | 543 kts | 111° |
| 2026-04-25 18:32 | 21.51262 | -34.63157 | 37094 ft | 542 kts | 112° |
| 2026-04-25 18:33 | 21.48532 | -34.55611 | 37102 ft | 542 kts | 112° |
| 2026-04-25 18:33 | 21.45815 | -34.48113 | 37100 ft | 542 kts | 112° |
| 2026-04-25 18:34 | 21.43077 | -34.40568 | 37099 ft | 542 kts | 112° |
| 2026-04-25 18:34 | 21.40347 | -34.33058 | 37093 ft | 542 kts | 112° |
| 2026-04-25 18:35 | 21.37613 | -34.25546 | 37098 ft | 543 kts | 112° |
| 2026-04-25 18:35 | 21.34876 | -34.18040 | 37093 ft | 542 kts | 112° |
| 2026-04-25 18:36 | 21.32111 | -34.10469 | 37086 ft | 542 kts | 112° |
| 2026-04-25 18:36 | 21.29366 | -34.02966 | 37098 ft | 541 kts | 112° |
| 2026-04-25 18:37 | 21.26601 | -33.95419 | 37095 ft | 541 kts | 112° |
| 2026-04-25 18:37 | 21.23841 | -33.87900 | 37093 ft | 541 kts | 112° |
| 2026-04-25 18:38 | 21.21107 | -33.80459 | 37105 ft | 541 kts | 112° |
| 2026-04-25 18:38 | 21.18343 | -33.72953 | 37090 ft | 540 kts | 112° |
| 2026-04-25 18:39 | 21.15586 | -33.65473 | 37089 ft | 539 kts | 112° |
| 2026-04-25 18:39 | 21.12819 | -33.57980 | 37092 ft | 539 kts | 112° |
| 2026-04-25 18:40 | 21.10047 | -33.50487 | 37093 ft | 539 kts | 112° |
| 2026-04-25 18:40 | 21.07283 | -33.43026 | 37089 ft | 539 kts | 112° |
| 2026-04-25 18:41 | 21.04533 | -33.35613 | 37080 ft | 539 kts | 112° |
| 2026-04-25 18:41 | 21.01744 | -33.28107 | 37090 ft | 539 kts | 112° |
| 2026-04-25 18:42 | 20.99452 | -33.21949 | 37094 ft | 540 kts | 112° |
| 2026-04-25 18:42 | 20.96211 | -33.13251 | 37083 ft | 540 kts | 112° |
| 2026-04-25 18:43 | 20.93416 | -33.05766 | 37099 ft | 541 kts | 112° |
| 2026-04-25 18:43 | 20.90619 | -32.98284 | 37078 ft | 541 kts | 112° |
| 2026-04-25 18:44 | 20.87814 | -32.90793 | 37088 ft | 542 kts | 112° |
| 2026-04-25 18:44 | 20.85031 | -32.83373 | 37060 ft | 543 kts | 112° |
| 2026-04-25 18:45 | 20.82215 | -32.75872 | 37067 ft | 540 kts | 112° |
| 2026-04-25 18:45 | 20.79419 | -32.68440 | 37081 ft | 537 kts | 112° |
| 2026-04-25 18:46 | 20.76634 | -32.61048 | 37088 ft | 536 kts | 112° |
| 2026-04-25 18:46 | 20.73857 | -32.53687 | 37075 ft | 536 kts | 112° |
| 2026-04-25 18:47 | 20.71071 | -32.46316 | 37075 ft | 536 kts | 112° |
| 2026-04-25 18:47 | 20.68274 | -32.38923 | 37088 ft | 536 kts | 112° |
| 2026-04-25 18:48 | 20.65470 | -32.31527 | 37082 ft | 537 kts | 112° |
| 2026-04-25 18:48 | 20.62654 | -32.24107 | 37073 ft | 538 kts | 113° |
| 2026-04-25 18:49 | 20.59861 | -32.16758 | 37078 ft | 539 kts | 113° |
| 2026-04-25 18:49 | 20.57014 | -32.09281 | 37077 ft | 540 kts | 113° |
| 2026-04-25 18:50 | 20.54181 | -32.01850 | 37076 ft | 541 kts | 113° |
| 2026-04-25 18:50 | 20.51343 | -31.94417 | 37080 ft | 541 kts | 113° |
| 2026-04-25 18:51 | 20.48996 | -31.88277 | 37078 ft | 541 kts | 113° |
| 2026-04-25 18:51 | 20.45673 | -31.79595 | 37071 ft | 539 kts | 113° |
| 2026-04-25 18:52 | 20.42840 | -31.72206 | 37069 ft | 538 kts | 113° |
| 2026-04-25 18:52 | 20.39827 | -31.64956 | 37068 ft | 538 kts | 116° |
| 2026-04-25 18:53 | 20.36587 | -31.57754 | 37069 ft | 537 kts | 117° |
| 2026-04-25 18:53 | 20.33360 | -31.50575 | 37072 ft | 537 kts | 117° |
| 2026-04-25 18:54 | 20.28575 | -31.39753 | 37054 ft | 538 kts | 116° |
| 2026-04-25 18:55 | 20.25401 | -31.32538 | 37058 ft | 535 kts | 116° |
| 2026-04-25 18:55 | 20.22245 | -31.25380 | 37059 ft | 534 kts | 116° |
| 2026-04-25 18:56 | 20.19080 | -31.18216 | 37062 ft | 533 kts | 116° |
| 2026-04-25 18:56 | 20.15963 | -31.11175 | 37060 ft | 533 kts | 116° |
| 2026-04-25 18:57 | 20.12796 | -31.04031 | 37062 ft | 532 kts | 116° |
| 2026-04-25 18:57 | 20.09611 | -30.96853 | 37073 ft | 533 kts | 116° |
| 2026-04-25 18:58 | 20.06446 | -30.89731 | 37060 ft | 532 kts | 116° |
| 2026-04-25 18:58 | 20.01684 | -30.79032 | 37063 ft | 533 kts | 116° |
| 2026-04-25 18:59 | 19.95353 | -30.64840 | 37066 ft | 534 kts | 116° |
| 2026-04-25 19:00 | 19.90558 | -30.54116 | 37064 ft | 535 kts | 116° |
| 2026-04-25 19:01 | 19.85775 | -30.43440 | 37057 ft | 534 kts | 116° |
| 2026-04-25 19:01 | 19.82568 | -30.36291 | 37053 ft | 533 kts | 116° |
| 2026-04-25 19:02 | 19.77752 | -30.25576 | 37052 ft | 533 kts | 116° |
| 2026-04-25 19:03 | 19.74036 | -30.17321 | 37053 ft | 533 kts | 116° |
| 2026-04-25 19:03 | 19.69768 | -30.07856 | 37054 ft | 533 kts | 116° |
| 2026-04-25 19:04 | 19.64984 | -29.97265 | 37057 ft | 533 kts | 116° |
| 2026-04-25 19:05 | 19.58567 | -29.83092 | 37052 ft | 532 kts | 117° |
| 2026-04-25 19:06 | 19.55343 | -29.75984 | 37049 ft | 533 kts | 117° |
| 2026-04-25 19:06 | 19.50513 | -29.65352 | 37050 ft | 532 kts | 117° |
| 2026-04-25 19:07 | 19.45702 | -29.54781 | 37046 ft | 531 kts | 117° |
| 2026-04-25 19:08 | 19.40888 | -29.44223 | 37044 ft | 530 kts | 117° |
| 2026-04-25 19:09 | 19.35549 | -29.32538 | 37049 ft | 529 kts | 117° |
| 2026-04-25 19:10 | 19.30212 | -29.20883 | 37044 ft | 529 kts | 117° |
| 2026-04-25 19:10 | 19.26994 | -29.13865 | 37049 ft | 529 kts | 117° |
| 2026-04-25 19:11 | 19.23798 | -29.06904 | 37041 ft | 528 kts | 117° |
| 2026-04-25 19:11 | 19.20584 | -28.99911 | 37041 ft | 528 kts | 117° |
| 2026-04-25 19:12 | 19.17368 | -28.92924 | 37047 ft | 527 kts | 117° |
| 2026-04-25 19:12 | 19.14151 | -28.85944 | 37040 ft | 527 kts | 117° |
| 2026-04-25 19:13 | 19.10935 | -28.78973 | 37041 ft | 527 kts | 117° |
| 2026-04-25 19:13 | 19.07713 | -28.71998 | 37038 ft | 528 kts | 117° |
| 2026-04-25 19:14 | 19.04486 | -28.65020 | 37038 ft | 528 kts | 117° |
| 2026-04-25 19:14 | 19.01268 | -28.58071 | 37035 ft | 528 kts | 117° |
| 2026-04-25 19:15 | 18.98031 | -28.51088 | 37037 ft | 528 kts | 117° |
| 2026-04-25 19:15 | 18.94806 | -28.44139 | 37035 ft | 529 kts | 117° |
| 2026-04-25 19:16 | 18.91576 | -28.37188 | 37036 ft | 529 kts | 117° |
| 2026-04-25 19:16 | 18.88345 | -28.30245 | 37033 ft | 529 kts | 117° |
| 2026-04-25 19:17 | 18.85093 | -28.23263 | 37031 ft | 529 kts | 117° |
| 2026-04-25 19:17 | 18.81837 | -28.16281 | 37019 ft | 529 kts | 117° |
| 2026-04-25 19:18 | 18.78589 | -28.09323 | 37026 ft | 527 kts | 117° |
| 2026-04-25 19:18 | 18.75370 | -28.02437 | 37031 ft | 526 kts | 117° |
| 2026-04-25 19:19 | 18.72133 | -27.95521 | 37032 ft | 525 kts | 117° |
| 2026-04-25 19:19 | 18.68900 | -27.88620 | 37033 ft | 524 kts | 117° |
| 2026-04-25 19:20 | 18.65668 | -27.81730 | 37029 ft | 524 kts | 117° |
| 2026-04-25 19:20 | 18.62433 | -27.74842 | 37033 ft | 524 kts | 117° |
| 2026-04-25 19:21 | 18.59182 | -27.67928 | 37023 ft | 527 kts | 117° |
| 2026-04-25 19:21 | 18.54316 | -27.57593 | 37027 ft | 526 kts | 117° |
| 2026-04-25 19:22 | 18.51063 | -27.50695 | 37029 ft | 525 kts | 117° |
| 2026-04-25 19:23 | 18.46181 | -27.40355 | 37026 ft | 525 kts | 117° |
| 2026-04-25 19:23 | 18.41300 | -27.30036 | 37024 ft | 524 kts | 117° |
| 2026-04-25 19:24 | 18.38044 | -27.23163 | 37025 ft | 524 kts | 118° |
| 2026-04-25 19:25 | 18.31559 | -27.09494 | 37021 ft | 522 kts | 118° |
| 2026-04-25 19:25 | 18.28313 | -27.02666 | 37024 ft | 521 kts | 118° |
| 2026-04-25 19:26 | 18.25066 | -26.95842 | 37018 ft | 521 kts | 118° |
| 2026-04-25 19:26 | 18.21815 | -26.89018 | 37019 ft | 520 kts | 118° |
| 2026-04-25 19:27 | 18.19121 | -26.83367 | 37022 ft | 521 kts | 118° |
| 2026-04-25 19:27 | 18.15334 | -26.75435 | 37018 ft | 522 kts | 118° |
| 2026-04-25 19:28 | 18.12070 | -26.68605 | 37012 ft | 522 kts | 118° |
| 2026-04-25 19:28 | 18.08810 | -26.61791 | 37011 ft | 521 kts | 118° |
| 2026-04-25 19:29 | 18.05568 | -26.55023 | 37016 ft | 521 kts | 118° |
| 2026-04-25 19:29 | 18.02303 | -26.48214 | 37017 ft | 520 kts | 118° |
| 2026-04-25 19:30 | 17.99041 | -26.41420 | 37013 ft | 520 kts | 118° |
| 2026-04-25 19:30 | 17.95780 | -26.34633 | 37014 ft | 520 kts | 118° |
| 2026-04-25 19:31 | 17.92514 | -26.27844 | 37014 ft | 520 kts | 118° |
| 2026-04-25 19:31 | 17.89272 | -26.21111 | 36997 ft | 520 kts | 118° |
| 2026-04-25 19:32 | 17.86009 | -26.14343 | 37008 ft | 518 kts | 118° |
| 2026-04-25 19:32 | 17.83299 | -26.08726 | 37007 ft | 518 kts | 118° |
| 2026-04-25 19:33 | 17.79487 | -26.00850 | 37007 ft | 517 kts | 119° |
| 2026-04-25 19:33 | 17.76074 | -25.94204 | 37013 ft | 516 kts | 121° |
| 2026-04-25 19:34 | 17.72615 | -25.87654 | 37007 ft | 516 kts | 121° |
| 2026-04-25 19:34 | 17.69141 | -25.81051 | 37003 ft | 516 kts | 121° |
| 2026-04-25 19:35 | 17.65686 | -25.74441 | 37006 ft | 516 kts | 120° |
| 2026-04-25 19:35 | 17.62241 | -25.67839 | 37003 ft | 515 kts | 120° |
| 2026-04-25 19:36 | 17.58797 | -25.61243 | 37007 ft | 515 kts | 121° |
| 2026-04-25 19:36 | 17.55352 | -25.54657 | 37001 ft | 514 kts | 121° |
| 2026-04-25 19:37 | 17.51929 | -25.48121 | 37000 ft | 514 kts | 121° |
| 2026-04-25 19:37 | 17.48486 | -25.41555 | 36999 ft | 514 kts | 121° |
| 2026-04-25 19:38 | 17.45039 | -25.34985 | 37000 ft | 514 kts | 121° |
| 2026-04-25 19:38 | 17.41591 | -25.28421 | 37000 ft | 514 kts | 121° |
| 2026-04-25 19:39 | 17.38143 | -25.21863 | 36994 ft | 513 kts | 121° |
| 2026-04-25 19:39 | 17.34723 | -25.15366 | 36999 ft | 513 kts | 121° |
| 2026-04-25 19:40 | 17.31276 | -25.08824 | 37000 ft | 512 kts | 121° |
| 2026-04-25 19:40 | 17.27832 | -25.02293 | 37000 ft | 512 kts | 121° |
| 2026-04-25 19:41 | 17.24388 | -24.95769 | 36997 ft | 512 kts | 121° |
| 2026-04-25 19:41 | 17.22105 | -24.91448 | 36998 ft | 512 kts | 121° |
| 2026-04-25 19:42 | 17.17490 | -24.82721 | 36992 ft | 512 kts | 121° |
| 2026-04-25 19:42 | 17.14061 | -24.76244 | 36985 ft | 512 kts | 121° |
| 2026-04-25 19:43 | 17.10605 | -24.69724 | 36995 ft | 512 kts | 121° |
| 2026-04-25 19:43 | 17.07154 | -24.63217 | 36985 ft | 512 kts | 121° |
| 2026-04-25 19:44 | 17.03699 | -24.56711 | 36983 ft | 512 kts | 121° |
| 2026-04-25 19:44 | 17.00244 | -24.50210 | 36986 ft | 512 kts | 121° |
| 2026-04-25 19:45 | 16.96785 | -24.43708 | 36962 ft | 512 kts | 121° |
| 2026-04-25 19:45 | 16.93324 | -24.37210 | 36969 ft | 512 kts | 121° |
| 2026-04-25 19:46 | 16.89857 | -24.30705 | 36970 ft | 512 kts | 121° |
| 2026-04-25 19:46 | 16.86412 | -24.24248 | 36971 ft | 511 kts | 121° |
| 2026-04-25 19:47 | 16.82944 | -24.17754 | 36966 ft | 511 kts | 121° |
| 2026-04-25 19:47 | 16.79478 | -24.11271 | 36974 ft | 510 kts | 121° |
| 2026-04-25 19:48 | 16.76040 | -24.04845 | 36976 ft | 510 kts | 121° |
| 2026-04-25 19:48 | 16.72575 | -23.98376 | 36976 ft | 510 kts | 121° |
| 2026-04-25 19:49 | 16.70258 | -23.94053 | 36975 ft | 509 kts | 121° |
| 2026-04-25 19:49 | 16.65647 | -23.85459 | 36972 ft | 509 kts | 121° |
| 2026-04-25 19:50 | 16.60476 | -23.75833 | 36969 ft | 509 kts | 121° |
| 2026-04-25 19:51 | 16.57013 | -23.69394 | 36964 ft | 509 kts | 121° |
| 2026-04-25 19:51 | 16.53542 | -23.62946 | 36964 ft | 509 kts | 121° |
| 2026-04-25 19:52 | 16.50067 | -23.56498 | 36959 ft | 509 kts | 121° |
| 2026-04-25 19:52 | 16.46598 | -23.50066 | 36958 ft | 509 kts | 121° |
| 2026-04-25 19:53 | 16.43149 | -23.43676 | 36950 ft | 509 kts | 121° |
| 2026-04-25 19:53 | 16.39671 | -23.37239 | 36951 ft | 509 kts | 122° |
| 2026-04-25 19:54 | 16.36779 | -23.31892 | 36944 ft | 509 kts | 122° |
| 2026-04-25 19:54 | 16.33304 | -23.25471 | 36951 ft | 508 kts | 122° |
| 2026-04-25 19:55 | 16.29842 | -23.19080 | 36949 ft | 506 kts | 122° |
| 2026-04-25 19:55 | 16.26384 | -23.12702 | 36966 ft | 506 kts | 122° |
| 2026-04-25 19:56 | 16.22914 | -23.06309 | 36959 ft | 507 kts | 122° |
| 2026-04-25 19:56 | 16.19460 | -22.99950 | 36956 ft | 507 kts | 122° |
| 2026-04-25 19:57 | 16.15988 | -22.93559 | 36938 ft | 507 kts | 122° |
| 2026-04-25 19:57 | 16.12517 | -22.87172 | 36940 ft | 507 kts | 121° |
| 2026-04-25 19:58 | 16.09098 | -22.80754 | 36935 ft | 506 kts | 121° |
| 2026-04-25 19:58 | 16.05712 | -22.74350 | 36930 ft | 504 kts | 121° |
| 2026-04-25 19:59 | 16.02354 | -22.68014 | 36947 ft | 503 kts | 121° |
| 2026-04-25 19:59 | 15.98956 | -22.61625 | 36960 ft | 506 kts | 121° |
| 2026-04-25 20:00 | 15.95541 | -22.55214 | 36955 ft | 507 kts | 121° |
| 2026-04-25 20:00 | 15.92122 | -22.48802 | 36957 ft | 507 kts | 121° |
| 2026-04-25 20:01 | 15.86981 | -22.39168 | 36947 ft | 507 kts | 121° |
| 2026-04-25 20:01 | 15.83583 | -22.32808 | 36931 ft | 507 kts | 121° |
| 2026-04-25 20:02 | 15.80160 | -22.26406 | 36949 ft | 505 kts | 121° |
| 2026-04-25 20:02 | 15.76748 | -22.20029 | 36952 ft | 505 kts | 121° |
| 2026-04-25 20:03 | 15.73328 | -22.13646 | 36951 ft | 504 kts | 121° |
| 2026-04-25 20:03 | 15.69935 | -22.07318 | 36949 ft | 504 kts | 121° |
| 2026-04-25 20:04 | 15.66526 | -22.00965 | 36938 ft | 504 kts | 121° |
| 2026-04-25 20:04 | 15.63112 | -21.94607 | 36945 ft | 504 kts | 121° |
| 2026-04-25 20:05 | 15.59699 | -21.88258 | 36939 ft | 503 kts | 121° |
| 2026-04-25 20:05 | 15.56284 | -21.81911 | 36928 ft | 504 kts | 121° |
| 2026-04-25 20:06 | 15.52866 | -21.75564 | 36945 ft | 503 kts | 121° |
| 2026-04-25 20:06 | 15.49450 | -21.69225 | 36936 ft | 502 kts | 121° |
| 2026-04-25 20:07 | 15.46062 | -21.62944 | 36944 ft | 502 kts | 121° |
| 2026-04-25 20:07 | 15.42651 | -21.56624 | 36941 ft | 502 kts | 121° |
| 2026-04-25 20:08 | 15.39230 | -21.50294 | 36940 ft | 503 kts | 121° |
| 2026-04-25 20:08 | 15.35802 | -21.43956 | 36934 ft | 504 kts | 121° |
| 2026-04-25 20:09 | 15.32372 | -21.37618 | 36940 ft | 504 kts | 121° |
| 2026-04-25 20:09 | 15.28942 | -21.31286 | 36937 ft | 504 kts | 121° |
| 2026-04-25 20:10 | 15.25508 | -21.24952 | 36932 ft | 503 kts | 121° |
| 2026-04-25 20:10 | 15.22084 | -21.18640 | 36935 ft | 502 kts | 121° |
| 2026-04-25 20:11 | 15.18680 | -21.12372 | 36932 ft | 501 kts | 121° |
| 2026-04-25 20:11 | 15.15260 | -21.06081 | 36934 ft | 501 kts | 121° |
| 2026-04-25 20:12 | 15.11843 | -20.99798 | 36932 ft | 500 kts | 121° |
| 2026-04-25 20:12 | 15.09578 | -20.95637 | 36934 ft | 501 kts | 121° |
| 2026-04-25 20:13 | 15.05016 | -20.87264 | 36938 ft | 501 kts | 121° |
| 2026-04-25 20:13 | 15.01590 | -20.80981 | 36932 ft | 502 kts | 121° |
| 2026-04-25 20:14 | 14.98158 | -20.74692 | 36929 ft | 500 kts | 121° |
| 2026-04-25 20:14 | 14.94745 | -20.68442 | 36919 ft | 497 kts | 121° |
| 2026-04-25 20:15 | 14.91350 | -20.62233 | 36919 ft | 496 kts | 121° |
| 2026-04-25 20:15 | 14.87940 | -20.56002 | 36935 ft | 500 kts | 121° |
| 2026-04-25 20:16 | 14.84507 | -20.49732 | 36930 ft | 502 kts | 121° |
| 2026-04-25 20:16 | 14.81062 | -20.43444 | 36924 ft | 502 kts | 121° |
| 2026-04-25 20:17 | 14.77642 | -20.37206 | 36924 ft | 499 kts | 121° |
| 2026-04-25 20:17 | 14.74232 | -20.30990 | 36919 ft | 496 kts | 121° |
| 2026-04-25 20:18 | 14.70817 | -20.24773 | 36919 ft | 497 kts | 121° |
| 2026-04-25 20:18 | 14.67776 | -20.18358 | 36912 ft | 499 kts | 110° |
| 2026-04-25 20:19 | 14.65611 | -20.11549 | 36920 ft | 499 kts | 108° |
| 2026-04-25 20:19 | 14.63526 | -20.04756 | 36917 ft | 499 kts | 109° |
| 2026-04-25 20:20 | 14.61386 | -19.97947 | 36915 ft | 498 kts | 109° |
| 2026-04-25 20:20 | 14.59209 | -19.91143 | 36914 ft | 498 kts | 109° |
| 2026-04-25 20:21 | 14.57040 | -19.84403 | 36919 ft | 497 kts | 109° |
| 2026-04-25 20:21 | 14.54852 | -19.77609 | 36918 ft | 498 kts | 109° |
| 2026-04-25 20:22 | 14.53388 | -19.73065 | 36919 ft | 498 kts | 109° |
| 2026-04-25 20:22 | 14.50487 | -19.64060 | 36910 ft | 498 kts | 109° |
| 2026-04-25 20:23 | 14.48299 | -19.57277 | 36911 ft | 498 kts | 109° |
| 2026-04-25 20:23 | 14.46111 | -19.50502 | 36910 ft | 497 kts | 109° |
| 2026-04-25 20:24 | 14.43920 | -19.43726 | 36911 ft | 496 kts | 109° |
| 2026-04-25 20:24 | 14.41735 | -19.36975 | 36905 ft | 496 kts | 109° |
| 2026-04-25 20:25 | 14.39549 | -19.30230 | 36903 ft | 495 kts | 109° |
| 2026-04-25 20:25 | 14.37362 | -19.23487 | 36902 ft | 495 kts | 109° |
| 2026-04-25 20:26 | 14.35170 | -19.16736 | 36904 ft | 496 kts | 109° |
| 2026-04-25 20:26 | 14.32990 | -19.10029 | 36900 ft | 496 kts | 109° |
| 2026-04-25 20:27 | 14.30795 | -19.03284 | 36900 ft | 496 kts | 109° |
| 2026-04-25 20:27 | 14.28599 | -18.96542 | 36895 ft | 495 kts | 109° |
| 2026-04-25 20:28 | 14.26521 | -18.90170 | 36892 ft | 495 kts | 109° |
| 2026-04-25 20:28 | 14.24339 | -18.83487 | 36893 ft | 495 kts | 109° |
| 2026-04-25 20:29 | 14.22140 | -18.76756 | 36894 ft | 495 kts | 109° |
| 2026-04-25 20:29 | 14.19938 | -18.70025 | 36892 ft | 495 kts | 109° |
| 2026-04-25 20:30 | 14.17735 | -18.63297 | 36890 ft | 495 kts | 109° |
| 2026-04-25 20:30 | 14.15532 | -18.56575 | 36886 ft | 494 kts | 109° |
| 2026-04-25 20:31 | 14.13343 | -18.49902 | 36886 ft | 494 kts | 109° |
| 2026-04-25 20:31 | 14.11125 | -18.43152 | 36886 ft | 493 kts | 109° |
| 2026-04-25 20:32 | 14.10048 | -18.39875 | 36717 ft | 484 kts | 109° |
| 2026-04-25 20:32 | 14.08986 | -18.36601 | 36057 ft | 482 kts | 106° |
| 2026-04-25 20:32 | 14.08442 | -18.33190 | 35121 ft | 485 kts | 89° |
| 2026-04-25 20:32 | 14.08836 | -18.29745 | 34335 ft | 483 kts | 71° |
| 2026-04-25 20:33 | 14.10133 | -18.26623 | 34199 ft | 472 kts | 58° |
| 2026-04-25 20:33 | 14.11836 | -18.23696 | 34114 ft | 480 kts | 55° |
| 2026-04-25 20:33 | 14.13664 | -18.20776 | 34011 ft | 489 kts | 54° |
| 2026-04-25 20:33 | 14.14297 | -18.19784 | 33974 ft | 491 kts | 54° |
| 2026-04-25 20:34 | 14.19309 | -18.11993 | 33873 ft | 488 kts | 53° |
| 2026-04-25 20:34 | 14.23069 | -18.06172 | 33881 ft | 488 kts | 53° |
| 2026-04-25 20:35 | 14.26832 | -18.00335 | 33485 ft | 481 kts | 53° |
| 2026-04-25 20:35 | 14.28668 | -17.97476 | 32703 ft | 478 kts | 53° |
| 2026-04-25 20:35 | 14.30478 | -17.94646 | 31703 ft | 480 kts | 53° |
| 2026-04-25 20:36 | 14.32321 | -17.91757 | 30604 ft | 484 kts | 53° |
| 2026-04-25 20:36 | 14.34171 | -17.88843 | 29444 ft | 487 kts | 53° |
| 2026-04-25 20:36 | 14.36030 | -17.85912 | 28106 ft | 489 kts | 54° |
| 2026-04-25 20:36 | 14.37902 | -17.82975 | 26784 ft | 490 kts | 54° |
| 2026-04-25 20:37 | 14.39791 | -17.80041 | 25532 ft | 490 kts | 54° |
| 2026-04-25 20:37 | 14.41071 | -17.78070 | 24732 ft | 489 kts | 53° |
| 2026-04-25 20:37 | 14.42947 | -17.75219 | 23674 ft | 484 kts | 54° |
| 2026-04-25 20:37 | 14.44842 | -17.72370 | 22537 ft | 478 kts | 55° |
| 2026-04-25 20:38 | 14.46725 | -17.69573 | 21470 ft | 471 kts | 54° |
| 2026-04-25 20:38 | 14.48587 | -17.66821 | 20454 ft | 465 kts | 54° |
| 2026-04-25 20:38 | 14.50384 | -17.64120 | 20159 ft | 446 kts | 53° |
| 2026-04-25 20:38 | 14.52092 | -17.61524 | 20021 ft | 428 kts | 55° |
| 2026-04-25 20:39 | 14.53367 | -17.58816 | 19844 ft | 414 kts | 73° |
| 2026-04-25 20:39 | 14.53771 | -17.55925 | 19454 ft | 405 kts | 91° |
| 2026-04-25 20:39 | 14.53292 | -17.53086 | 18828 ft | 402 kts | 110° |
| 2026-04-25 20:39 | 14.52494 | -17.51371 | 18444 ft | 399 kts | 125° |
| 2026-04-25 20:40 | 14.49869 | -17.48712 | 18228 ft | 396 kts | 149° |
| 2026-04-25 20:40 | 14.47516 | -17.47235 | 18125 ft | 394 kts | 153° |
| 2026-04-25 20:40 | 14.45131 | -17.45845 | 17988 ft | 393 kts | 153° |
| 2026-04-25 20:40 | 14.42773 | -17.44494 | 17871 ft | 390 kts | 154° |
| 2026-04-25 20:41 | 14.40414 | -17.43148 | 17740 ft | 384 kts | 154° |
| 2026-04-25 20:41 | 14.38078 | -17.41819 | 17600 ft | 381 kts | 154° |
| 2026-04-25 20:41 | 14.35755 | -17.40500 | 17480 ft | 382 kts | 154° |
| 2026-04-25 20:41 | 14.33427 | -17.39181 | 17352 ft | 381 kts | 154° |
| 2026-04-25 20:42 | 14.31111 | -17.37871 | 17225 ft | 379 kts | 154° |
| 2026-04-25 20:42 | 14.28797 | -17.36562 | 17100 ft | 378 kts | 154° |
| 2026-04-25 20:42 | 14.26490 | -17.35260 | 16970 ft | 377 kts | 154° |
| 2026-04-25 20:42 | 14.24195 | -17.33967 | 16828 ft | 374 kts | 154° |
| 2026-04-25 20:43 | 14.21926 | -17.32681 | 16527 ft | 369 kts | 154° |
| 2026-04-25 20:43 | 14.19724 | -17.31429 | 15996 ft | 365 kts | 154° |
| 2026-04-25 20:43 | 14.17469 | -17.30237 | 15354 ft | 360 kts | 163° |
| 2026-04-25 20:43 | 14.15040 | -17.29809 | 14840 ft | 349 kts | 184° |
| 2026-04-25 20:44 | 14.12739 | -17.30086 | 14696 ft | 320 kts | 192° |
| 2026-04-25 20:44 | 14.10602 | -17.30480 | 14439 ft | 308 kts | 194° |
| 2026-04-25 20:44 | 14.08539 | -17.30894 | 13988 ft | 298 kts | 193° |
| 2026-04-25 20:44 | 14.06510 | -17.31326 | 13353 ft | 296 kts | 193° |
| 2026-04-25 20:45 | 14.04509 | -17.31761 | 12722 ft | 291 kts | 193° |
| 2026-04-25 20:45 | 14.02531 | -17.32206 | 12132 ft | 287 kts | 194° |
| 2026-04-25 20:45 | 14.00602 | -17.32644 | 11474 ft | 284 kts | 193° |
| 2026-04-25 20:45 | 13.98661 | -17.33107 | 10747 ft | 286 kts | 193° |
| 2026-04-25 20:46 | 13.96738 | -17.33497 | 10025 ft | 287 kts | 181° |
| 2026-04-25 20:46 | 13.94762 | -17.33095 | 9388 ft | 289 kts | 153° |
| 2026-04-25 20:46 | 13.93217 | -17.31790 | 9191 ft | 290 kts | 127° |
| 2026-04-25 20:46 | 13.92387 | -17.29903 | 9077 ft | 293 kts | 102° |
| 2026-04-25 20:47 | 13.92156 | -17.27838 | 8982 ft | 295 kts | 95° |
| 2026-04-25 20:47 | 13.92032 | -17.25736 | 8888 ft | 293 kts | 94° |
| 2026-04-25 20:47 | 13.91923 | -17.23648 | 8866 ft | 291 kts | 94° |
| 2026-04-25 20:47 | 13.91965 | -17.21567 | 8850 ft | 294 kts | 78° |
| 2026-04-25 20:48 | 13.92799 | -17.19674 | 8860 ft | 291 kts | 53° |
| 2026-04-25 20:48 | 13.94309 | -17.18325 | 8861 ft | 288 kts | 30° |
| 2026-04-25 20:48 | 13.96180 | -17.17597 | 8864 ft | 290 kts | 15° |
| 2026-04-25 20:48 | 13.98256 | -17.17046 | 8891 ft | 330 kts | 14° |
| 2026-04-25 20:49 | 14.00596 | -17.16470 | 8862 ft | 349 kts | 13° |
| 2026-04-25 20:49 | 14.02929 | -17.15902 | 8746 ft | 340 kts | 13° |
| 2026-04-25 20:49 | 14.05182 | -17.15346 | 8535 ft | 321 kts | 13° |
| 2026-04-25 20:49 | 14.07268 | -17.14824 | 8362 ft | 296 kts | 14° |
| 2026-04-25 20:50 | 14.09222 | -17.14330 | 7892 ft | 286 kts | 14° |
| 2026-04-25 20:50 | 14.11143 | -17.13841 | 7293 ft | 282 kts | 13° |
| 2026-04-25 20:50 | 14.13012 | -17.13363 | 6747 ft | 277 kts | 13° |
| 2026-04-25 20:50 | 14.14864 | -17.12888 | 6292 ft | 270 kts | 13° |
| 2026-04-25 20:51 | 14.16625 | -17.12435 | 6124 ft | 252 kts | 13° |
| 2026-04-25 20:51 | 14.18283 | -17.12009 | 6020 ft | 239 kts | 13° |
| 2026-04-25 20:51 | 14.19873 | -17.11600 | 5943 ft | 233 kts | 13° |
| 2026-04-25 20:51 | 14.21439 | -17.11198 | 5602 ft | 234 kts | 13° |
| 2026-04-25 20:52 | 14.23013 | -17.10794 | 5269 ft | 234 kts | 13° |
| 2026-04-25 20:52 | 14.24064 | -17.10523 | 5100 ft | 233 kts | 13° |
| 2026-04-25 20:52 | 14.26149 | -17.09986 | 5025 ft | 231 kts | 13° |
| 2026-04-25 20:52 | 14.27738 | -17.09577 | 5011 ft | 237 kts | 13° |
| 2026-04-25 20:53 | 14.29330 | -17.09167 | 5004 ft | 231 kts | 13° |
| 2026-04-25 20:53 | 14.30848 | -17.08776 | 4988 ft | 223 kts | 12° |
| 2026-04-25 20:53 | 14.32341 | -17.08391 | 4995 ft | 221 kts | 13° |
| 2026-04-25 20:53 | 14.33840 | -17.08005 | 5000 ft | 223 kts | 12° |
| 2026-04-25 20:54 | 14.35348 | -17.07616 | 4996 ft | 221 kts | 13° |
| 2026-04-25 20:54 | 14.36825 | -17.07236 | 4995 ft | 217 kts | 12° |
| 2026-04-25 20:54 | 14.38313 | -17.07033 | 4999 ft | 215 kts | 2° |
| 2026-04-25 20:54 | 14.39832 | -17.07016 | 4991 ft | 221 kts | 359° |
| 2026-04-25 20:55 | 14.41417 | -17.07033 | 4730 ft | 232 kts | 359° |
| 2026-04-25 20:55 | 14.43003 | -17.07053 | 4436 ft | 230 kts | 359° |
| 2026-04-25 20:55 | 14.44598 | -17.07070 | 4141 ft | 228 kts | 360° |
| 2026-04-25 20:55 | 14.46170 | -17.07085 | 3857 ft | 221 kts | 359° |
| 2026-04-25 20:56 | 14.47681 | -17.07099 | 3588 ft | 213 kts | 0° |
| 2026-04-25 20:56 | 14.49139 | -17.07113 | 3318 ft | 206 kts | 360° |
| 2026-04-25 20:56 | 14.50552 | -17.07126 | 3066 ft | 200 kts | 0° |
| 2026-04-25 20:56 | 14.51924 | -17.07139 | 2823 ft | 194 kts | 1° |
| 2026-04-25 20:57 | 14.53257 | -17.07152 | 2583 ft | 188 kts | 0° |
| 2026-04-25 20:57 | 14.54547 | -17.07164 | 2346 ft | 181 kts | 360° |
| 2026-04-25 20:57 | 14.55765 | -17.07176 | 2128 ft | 171 kts | 1° |
| 2026-04-25 20:57 | 14.56940 | -17.07187 | 1899 ft | 160 kts | 0° |
| 2026-04-25 20:58 | 14.57987 | -17.07197 | 1698 ft | 145 kts | 0° |
| 2026-04-25 20:58 | 14.58963 | -17.07207 | 1550 ft | 136 kts | 2° |
| 2026-04-25 20:58 | 14.59850 | -17.07214 | 1381 ft | 118 kts | 359° |
| 2026-04-25 20:58 | 14.60641 | -17.07221 | 1194 ft | 108 kts | 359° |
| 2026-04-25 20:59 | 14.61392 | -17.07229 | 1081 ft | 111 kts | 0° |
| 2026-04-25 20:59 | 14.62160 | -17.07236 | 927 ft | 110 kts | 358° |
| 2026-04-25 20:59 | 14.62926 | -17.07257 | 773 ft | 117 kts | 1° |
| 2026-04-25 20:59 | 14.63694 | -17.07251 | 652 ft | 107 kts | 358° |
| 2026-04-25 21:00 | 14.64441 | -17.07254 | 515 ft | 111 kts | 358° |
| 2026-04-25 21:00 | 14.64694 | -17.07259 | 487 ft | 114 kts | 359° |
| 2026-04-25 21:00 | 14.66549 | -17.07277 | 294 ft | 70 kts | 359° |
| 2026-04-25 21:01 | 14.66979 | -17.07280 | 299 ft | 32 kts | 360° |
| 2026-04-25 21:01 | 14.67075 | -17.07203 | 298 ft | 13 kts | 89° |
| 2026-04-25 21:01 | 14.67075 | -17.07167 | 296 ft | 2 kts | 88° |
| 2026-04-25 21:01 | 14.67076 | -17.07164 | 296 ft | 0 kts | 88° |
| 2026-04-25 21:02 | 14.67076 | -17.07163 | 296 ft | 1 kts | 88° |
| 2026-04-25 21:02 | 14.67075 | -17.07130 | 297 ft | 8 kts | 95° |
| 2026-04-25 21:02 | 14.67023 | -17.07092 | 295 ft | 12 kts | 177° |
| 2026-04-25 21:02 | 14.66928 | -17.07090 | 294 ft | 15 kts | 180° |
| 2026-04-25 21:03 | 14.66821 | -17.07089 | 294 ft | 15 kts | 180° |
| 2026-04-25 21:03 | 14.66718 | -17.07088 | 294 ft | 14 kts | 179° |
| 2026-04-25 21:03 | 14.66663 | -17.07032 | 296 ft | 13 kts | 89° |
| 2026-04-25 21:03 | 14.66664 | -17.06936 | 293 ft | 13 kts | 90° |
| 2026-04-25 21:04 | 14.66679 | -17.06881 | 294 ft | 7 kts | 28° |
| 2026-04-25 21:04 | 14.66728 | -17.06872 | 291 ft | 7 kts | 0° |
| 2026-04-25 21:04 | 14.66765 | -17.06873 | 291 ft | 2 kts | 360° |
| 2026-04-25 21:04 | 14.66774 | -17.06873 | 291 ft | 0 kts | 0° |